Time,TemperatureF,DewpointF,PressureIn,WindDirection,WindDirectionDegrees,WindSpeedMPH,WindSpeedGustMPH,Humidity,HourlyPrecipIn,Conditions,Clouds,dailyrainin,SoftwareType,DateUTC
2013-01-28 00:00:00,39.0,39.0,30.06,ESE,112,0.0,0.0,100,0.00,,OVC022,0.21,VWS V14.00,2013-01-28 08:00:00,
2013-01-28 00:02:00,39.0,39.0,30.06,ESE,112,0.0,0.0,100,0.00,,OVC022,0.00,VWS V14.00,2013-01-28 08:02:00,
2013-01-28 00:04:00,38.8,38.8,30.06,ESE,112,0.0,0.0,100,0.00,,OVC022,0.00,VWS V14.00,2013-01-28 08:04:00,
2013-01-28 00:05:00,38.8,38.8,30.06,ESE,112,0.0,0.0,100,0.00,,OVC022,0.00,VWS V14.00,2013-01-28 08:05:00,
2013-01-28 00:07:00,38.8,38.8,30.06,ESE,112,0.0,0.0,100,0.00,,OVC022,0.00,VWS V14.00,2013-01-28 08:07:00,
2013-01-28 00:09:00,39.0,39.0,30.06,ESE,112,0.0,0.0,100,0.00,,OVC022,0.00,VWS V14.00,2013-01-28 08:09:00,
2013-01-28 00:10:00,39.0,39.0,30.06,ESE,112,0.0,0.0,100,0.00,,OVC022,0.00,VWS V14.00,2013-01-28 08:10:00,
2013-01-28 00:12:00,39.0,39.0,30.06,ESE,112,0.0,0.0,100,0.00,,OVC022,0.00,VWS V14.00,2013-01-28 08:12:00,
2013-01-28 00:14:00,39.0,39.0,30.06,ESE,112,0.0,0.0,100,0.00,,OVC022,0.00,VWS V14.00,2013-01-28 08:14:00,
2013-01-28 00:15:00,39.0,39.0,30.06,ESE,112,0.0,0.0,100,0.00,,OVC022,0.00,VWS V14.00,2013-01-28 08:15:00,
2013-01-28 00:17:00,38.8,38.8,30.06,ESE,112,0.0,0.0,100,0.00,,OVC022,0.00,VWS V14.00,2013-01-28 08:17:00,
2013-01-28 00:19:00,38.8,38.8,30.06,ESE,112,0.0,0.0,100,0.00,,OVC022,0.00,VWS V14.00,2013-01-28 08:19:00,
2013-01-28 00:20:00,38.8,38.8,30.06,ESE,112,0.0,0.0,100,0.00,,OVC022,0.00,VWS V14.00,2013-01-28 08:20:00,
2013-01-28 00:22:00,38.8,38.8,30.06,ESE,112,0.0,0.0,100,0.00,,OVC022,0.00,VWS V14.00,2013-01-28 08:22:00,
2013-01-28 00:24:00,39.0,39.0,30.06,ESE,112,0.0,0.0,100,0.00,,OVC022,0.00,VWS V14.00,2013-01-28 08:24:00,
2013-01-28 00:25:00,39.0,39.0,30.06,ESE,112,0.0,0.0,100,0.00,,OVC022,0.00,VWS V14.00,2013-01-28 08:25:00,
2013-01-28 00:27:00,39.0,39.0,30.06,ESE,112,0.0,0.0,100,0.00,,OVC022,0.00,VWS V14.00,2013-01-28 08:27:00,
2013-01-28 00:29:00,39.0,39.0,30.06,ESE,112,0.0,0.0,100,0.00,,OVC022,0.00,VWS V14.00,2013-01-28 08:29:00,
2013-01-28 00:30:00,39.0,39.0,30.06,ESE,112,0.0,0.0,100,0.00,,OVC022,0.00,VWS V14.00,2013-01-28 08:30:00,
2013-01-28 00:32:00,39.0,39.0,30.06,ESE,112,0.0,0.0,100,0.00,,OVC032,0.00,VWS V14.00,2013-01-28 08:32:00,
2013-01-28 00:34:00,39.0,39.0,30.06,ESE,112,0.0,0.0,100,0.00,,OVC032,0.00,VWS V14.00,2013-01-28 08:34:00,
2013-01-28 00:35:00,39.0,39.0,30.06,ESE,112,0.0,0.0,100,0.00,,OVC032,0.00,VWS V14.00,2013-01-28 08:35:00,
2013-01-28 00:37:00,38.8,38.8,30.06,ESE,112,2.0,2.0,100,0.00,,OVC032,0.00,VWS V14.00,2013-01-28 08:37:00,
2013-01-28 00:39:00,38.8,38.8,30.06,ESE,112,2.5,2.5,100,0.00,,OVC032,0.00,VWS V14.00,2013-01-28 08:39:00,
2013-01-28 00:40:00,38.8,38.8,30.06,ESE,112,2.5,2.5,100,0.00,,OVC032,0.00,VWS V14.00,2013-01-28 08:40:00,
2013-01-28 00:42:00,38.8,38.8,30.06,ESE,112,0.0,2.5,100,0.00,,OVC032,0.00,VWS V14.00,2013-01-28 08:42:00,
2013-01-28 00:43:00,38.8,38.8,30.06,ESE,112,0.0,2.5,100,0.00,,OVC032,0.00,VWS V14.00,2013-01-28 08:43:00,
2013-01-28 00:45:00,38.8,38.8,30.06,ESE,112,0.0,2.5,100,0.00,,OVC032,0.00,VWS V14.00,2013-01-28 08:45:00,
2013-01-28 00:47:00,38.8,38.8,30.06,ESE,112,0.0,2.5,100,0.00,,OVC032,0.00,VWS V14.00,2013-01-28 08:47:00,
2013-01-28 00:48:00,38.8,38.8,30.06,ESE,112,0.0,2.5,100,0.00,,OVC032,0.00,VWS V14.00,2013-01-28 08:48:00,
2013-01-28 00:50:00,39.0,39.0,30.06,ESE,112,0.0,2.5,100,0.00,,OVC035,0.00,VWS V14.00,2013-01-28 08:50:00,
2013-01-28 00:52:00,39.0,39.0,30.06,ESE,112,0.0,2.5,100,0.00,,OVC035,0.00,VWS V14.00,2013-01-28 08:52:00,
2013-01-28 00:53:00,39.0,39.0,30.06,ESE,112,0.0,2.5,100,0.00,,OVC035,0.00,VWS V14.00,2013-01-28 08:53:00,
2013-01-28 00:55:00,39.0,39.0,30.06,ESE,112,0.0,2.0,100,0.00,,OVC035,0.00,VWS V14.00,2013-01-28 08:55:00,
2013-01-28 00:57:00,39.2,38.9,30.06,SE,135,1.1,1.6,99,0.00,,OVC035,0.00,VWS V14.00,2013-01-28 08:57:00,
2013-01-28 00:58:00,39.2,38.9,30.06,SE,135,1.1,1.6,99,0.00,,OVC035,0.00,VWS V14.00,2013-01-28 08:58:00,
2013-01-28 01:00:00,39.2,39.2,30.06,SE,135,0.0,1.6,100,0.00,,OVC035,0.00,VWS V14.00,2013-01-28 09:00:00,
2013-01-28 01:02:00,39.2,39.2,30.06,East,90,3.1,3.1,100,0.00,,OVC035,0.00,VWS V14.00,2013-01-28 09:02:00,
2013-01-28 01:03:00,39.2,39.2,30.06,SE,135,0.0,3.1,100,0.00,,OVC035,0.00,VWS V14.00,2013-01-28 09:03:00,
2013-01-28 01:05:00,39.2,38.9,30.06,SE,135,0.0,3.1,99,0.00,,OVC035,0.00,VWS V14.00,2013-01-28 09:05:00,
2013-01-28 01:07:00,39.2,38.9,30.06,SE,135,0.0,3.1,99,0.00,,OVC035,0.00,VWS V14.00,2013-01-28 09:07:00,
2013-01-28 01:08:00,39.2,39.2,30.06,SE,135,0.0,3.1,100,0.00,,OVC035,0.00,VWS V14.00,2013-01-28 09:08:00,
2013-01-28 01:10:00,39.2,39.2,30.06,SE,135,0.0,3.1,100,0.00,,OVC035,0.00,VWS V14.00,2013-01-28 09:10:00,
2013-01-28 01:13:00,39.2,39.2,30.06,SSE,158,0.0,3.1,100,0.00,,OVC035,0.00,VWS V14.00,2013-01-28 09:13:00,
2013-01-28 01:15:00,39.2,39.2,30.06,SSE,158,0.0,0.0,100,0.00,,OVC035,0.00,VWS V14.00,2013-01-28 09:15:00,
2013-01-28 01:18:00,39.4,39.4,30.06,SSE,158,0.0,0.0,100,0.00,,OVC035,0.00,VWS V14.00,2013-01-28 09:18:00,
2013-01-28 01:20:00,39.4,39.4,30.06,SE,135,0.0,0.0,100,0.00,,OVC035,0.00,VWS V14.00,2013-01-28 09:20:00,
2013-01-28 01:23:00,39.4,39.4,30.06,ESE,112,0.0,0.0,100,0.00,,OVC035,0.00,VWS V14.00,2013-01-28 09:23:00,
2013-01-28 01:25:00,39.4,39.4,30.09,ESE,112,0.0,0.0,100,0.00,,OVC035,0.00,VWS V14.00,2013-01-28 09:25:00,
2013-01-28 01:28:00,39.4,39.4,30.09,ESE,112,0.0,0.0,100,0.00,,OVC035,0.00,VWS V14.00,2013-01-28 09:28:00,
2013-01-28 01:30:00,39.6,39.6,30.09,SE,135,0.0,0.0,100,0.00,,OVC035,0.00,VWS V14.00,2013-01-28 09:30:00,
2013-01-28 01:33:00,39.7,39.7,30.09,East,90,0.0,0.0,100,0.00,,OVC034,0.00,VWS V14.00,2013-01-28 09:33:00,
2013-01-28 01:35:00,39.7,39.7,30.09,East,90,0.0,0.0,100,0.00,,OVC034,0.00,VWS V14.00,2013-01-28 09:35:00,
2013-01-28 01:38:00,39.7,39.7,30.09,East,90,0.0,0.0,100,0.00,,OVC034,0.00,VWS V14.00,2013-01-28 09:38:00,
2013-01-28 01:40:00,39.7,39.7,30.09,SE,135,0.0,0.0,100,0.00,,OVC034,0.00,VWS V14.00,2013-01-28 09:40:00,
2013-01-28 01:43:00,39.6,39.6,30.09,NW,315,0.0,0.0,100,0.00,,OVC034,0.00,VWS V14.00,2013-01-28 09:43:00,
2013-01-28 01:45:00,39.6,39.6,30.09,ESE,112,0.0,0.0,100,0.00,,OVC034,0.00,VWS V14.00,2013-01-28 09:45:00,
2013-01-28 01:46:00,39.4,39.4,30.09,ESE,112,0.0,0.0,100,0.00,,OVC034,0.00,VWS V14.00,2013-01-28 09:46:00,
2013-01-28 01:48:00,39.4,39.4,30.09,ESE,112,0.0,0.0,100,0.00,,OVC031,0.00,VWS V14.00,2013-01-28 09:48:00,
2013-01-28 01:50:00,39.4,39.4,30.09,ESE,112,0.0,0.0,100,0.00,,OVC031,0.00,VWS V14.00,2013-01-28 09:50:00,
2013-01-28 01:51:00,39.4,39.4,30.09,ESE,112,0.0,0.0,100,0.00,,OVC031,0.00,VWS V14.00,2013-01-28 09:51:00,
2013-01-28 01:53:00,39.4,39.4,30.09,ESE,112,0.0,0.0,100,0.00,,OVC031,0.00,VWS V14.00,2013-01-28 09:53:00,
2013-01-28 01:55:00,39.4,39.4,30.09,ESE,112,0.0,0.0,100,0.00,,OVC031,0.00,VWS V14.00,2013-01-28 09:55:00,
2013-01-28 01:56:00,39.4,39.4,30.09,WNW,292,0.0,0.0,100,0.00,,OVC041,0.00,VWS V14.00,2013-01-28 09:56:00,
2013-01-28 01:58:00,39.4,39.4,30.09,NE,45,0.0,0.0,100,0.00,,OVC031,0.00,VWS V14.00,2013-01-28 09:58:00,
2013-01-28 02:00:00,39.4,39.4,30.09,ENE,68,0.0,0.0,100,0.00,,OVC031,0.00,VWS V14.00,2013-01-28 10:00:00,
2013-01-28 02:01:00,39.4,39.4,30.09,ENE,68,0.0,0.0,100,0.00,,OVC031,0.00,VWS V14.00,2013-01-28 10:01:00,
2013-01-28 02:03:00,39.4,39.4,30.09,East,90,0.0,0.0,100,0.00,,OVC031,0.00,VWS V14.00,2013-01-28 10:03:00,
2013-01-28 02:05:00,39.2,39.2,30.09,SE,135,0.0,0.0,100,0.00,,OVC031,0.00,VWS V14.00,2013-01-28 10:05:00,
2013-01-28 02:06:00,39.2,39.2,30.09,SSE,158,0.0,0.0,100,0.00,,OVC031,0.00,VWS V14.00,2013-01-28 10:06:00,
2013-01-28 02:08:00,39.2,39.2,30.09,ESE,112,0.0,0.0,100,0.00,,OVC031,0.00,VWS V14.00,2013-01-28 10:08:00,
2013-01-28 02:10:00,39.2,39.2,30.09,ESE,112,0.0,0.0,100,0.00,,OVC031,0.00,VWS V14.00,2013-01-28 10:10:00,
2013-01-28 02:11:00,39.2,39.2,30.09,ESE,112,0.0,0.0,100,0.00,,OVC031,0.00,VWS V14.00,2013-01-28 10:11:00,
2013-01-28 02:13:00,39.2,39.2,30.09,ESE,112,0.0,0.0,100,0.00,,OVC031,0.00,VWS V14.00,2013-01-28 10:13:00,
2013-01-28 02:14:00,39.2,39.2,30.09,ESE,112,0.0,0.0,100,0.00,,OVC031,0.00,VWS V14.00,2013-01-28 10:14:00,
2013-01-28 02:15:00,39.2,39.2,30.09,NE,45,0.0,0.0,100,0.00,,OVC031,0.00,VWS V14.00,2013-01-28 10:15:00,
2013-01-28 02:16:00,39.2,39.2,30.09,NE,45,0.0,0.0,100,0.00,,OVC031,0.00,VWS V14.00,2013-01-28 10:16:00,
2013-01-28 02:18:00,39.2,39.2,30.09,NE,45,0.0,0.0,100,0.00,,OVC031,0.00,VWS V14.00,2013-01-28 10:18:00,
2013-01-28 02:19:00,39.2,39.2,30.09,WSW,248,0.0,0.0,100,0.00,,OVC031,0.00,VWS V14.00,2013-01-28 10:19:00,
2013-01-28 02:20:00,39.0,39.0,30.09,East,90,0.0,0.0,100,0.00,,OVC031,0.00,VWS V14.00,2013-01-28 10:20:00,
2013-01-28 02:21:00,39.0,39.0,30.09,East,90,0.0,0.0,100,0.00,,OVC031,0.00,VWS V14.00,2013-01-28 10:21:00,
2013-01-28 02:23:00,39.0,39.0,30.09,East,90,0.0,0.0,100,0.00,,OVC031,0.00,VWS V14.00,2013-01-28 10:23:00,
2013-01-28 02:24:00,39.0,39.0,30.09,East,90,0.0,0.0,100,0.00,,OVC031,0.00,VWS V14.00,2013-01-28 10:24:00,
2013-01-28 02:25:00,39.0,39.0,30.09,East,90,0.0,0.0,100,0.00,,OVC031,0.00,VWS V14.00,2013-01-28 10:25:00,
2013-01-28 02:26:00,39.0,39.0,30.09,East,90,0.0,0.0,100,0.00,,OVC031,0.00,VWS V14.00,2013-01-28 10:26:00,
2013-01-28 02:28:00,39.0,39.0,30.09,East,90,0.0,0.0,100,0.00,,OVC031,0.00,VWS V14.00,2013-01-28 10:28:00,
2013-01-28 02:29:00,39.0,39.0,30.09,SE,135,0.0,0.0,100,0.00,,OVC031,0.00,VWS V14.00,2013-01-28 10:29:00,
2013-01-28 02:30:00,39.0,39.0,30.09,SE,135,0.0,0.0,100,0.00,,OVC031,0.00,VWS V14.00,2013-01-28 10:30:00,
2013-01-28 02:31:00,39.2,39.2,30.09,SE,135,0.0,0.0,100,0.00,,OVC036,0.00,VWS V14.00,2013-01-28 10:31:00,
2013-01-28 02:33:00,39.2,39.2,30.09,SE,135,0.0,0.0,100,0.00,,OVC036,0.00,VWS V14.00,2013-01-28 10:33:00,
2013-01-28 02:34:00,39.2,39.2,30.09,SE,135,0.0,0.0,100,0.00,,OVC036,0.00,VWS V14.00,2013-01-28 10:34:00,
2013-01-28 02:35:00,39.2,39.2,30.09,ESE,112,0.0,0.0,100,0.00,,OVC036,0.00,VWS V14.00,2013-01-28 10:35:00,
2013-01-28 02:36:00,39.2,39.2,30.09,ESE,112,0.0,0.0,100,0.00,,OVC036,0.00,VWS V14.00,2013-01-28 10:36:00,
2013-01-28 02:38:00,39.4,39.4,30.09,ESE,112,0.0,0.0,100,0.00,,OVC036,0.00,VWS V14.00,2013-01-28 10:38:00,
2013-01-28 02:39:00,39.4,39.4,30.09,ESE,112,0.0,0.0,100,0.00,,OVC036,0.00,VWS V14.00,2013-01-28 10:39:00,
2013-01-28 02:40:00,39.4,39.4,30.09,ESE,112,0.0,0.0,100,0.00,,OVC036,0.00,VWS V14.00,2013-01-28 10:40:00,
2013-01-28 02:41:00,39.4,39.4,30.09,ESE,112,0.0,0.0,100,0.00,,OVC036,0.00,VWS V14.00,2013-01-28 10:41:00,
2013-01-28 02:43:00,39.4,39.4,30.09,ESE,112,0.0,0.0,100,0.00,,OVC036,0.00,VWS V14.00,2013-01-28 10:43:00,
2013-01-28 02:44:00,39.4,39.4,30.09,ESE,112,0.0,0.0,100,0.00,,OVC036,0.00,VWS V14.00,2013-01-28 10:44:00,
2013-01-28 02:45:00,39.4,39.4,30.09,ESE,112,0.0,0.0,100,0.00,,OVC036,0.00,VWS V14.00,2013-01-28 10:45:00,
2013-01-28 02:46:00,39.4,39.4,30.09,ESE,112,0.0,0.0,100,0.00,,OVC036,0.00,VWS V14.00,2013-01-28 10:46:00,
2013-01-28 02:48:00,39.4,39.4,30.09,SE,135,0.0,0.0,100,0.00,,OVC055,0.00,VWS V14.00,2013-01-28 10:48:00,
2013-01-28 02:49:00,39.6,39.6,30.09,SE,135,0.0,0.0,100,0.00,,OVC055,0.00,VWS V14.00,2013-01-28 10:49:00,
2013-01-28 02:51:00,39.6,39.6,30.09,SE,135,0.0,0.0,100,0.00,,OVC055,0.00,VWS V14.00,2013-01-28 10:51:00,
2013-01-28 02:53:00,39.6,39.6,30.09,ESE,112,0.0,0.0,100,0.00,,OVC055,0.00,VWS V14.00,2013-01-28 10:53:00,
2013-01-28 02:54:00,39.6,39.6,30.09,ESE,112,0.0,0.0,100,0.00,,OVC055,0.00,VWS V14.00,2013-01-28 10:54:00,
2013-01-28 02:56:00,39.7,39.7,30.09,ESE,112,0.0,0.0,100,0.00,,OVC036,0.00,VWS V14.00,2013-01-28 10:56:00,
2013-01-28 02:58:00,39.7,39.7,30.09,ESE,112,0.0,0.0,100,0.00,,OVC055,0.00,VWS V14.00,2013-01-28 10:58:00,
2013-01-28 02:59:00,39.7,39.7,30.09,ESE,112,0.0,0.0,100,0.00,,OVC055,0.00,VWS V14.00,2013-01-28 10:59:00,
2013-01-28 03:01:00,39.7,39.7,30.09,ESE,112,0.0,0.0,100,0.00,,OVC055,0.00,VWS V14.00,2013-01-28 11:01:00,
2013-01-28 03:03:00,39.7,39.7,30.09,WNW,292,0.0,2.0,100,0.00,,OVC055,0.00,VWS V14.00,2013-01-28 11:03:00,
2013-01-28 03:04:00,39.7,39.7,30.09,WNW,292,0.0,2.0,100,0.00,,OVC055,0.00,VWS V14.00,2013-01-28 11:04:00,
2013-01-28 03:06:00,39.7,39.7,30.09,WNW,292,0.0,2.0,100,0.00,,OVC055,0.00,VWS V14.00,2013-01-28 11:06:00,
2013-01-28 03:08:00,39.6,39.6,30.09,WNW,292,0.0,2.0,100,0.00,,OVC055,0.00,VWS V14.00,2013-01-28 11:08:00,
2013-01-28 03:09:00,39.6,39.6,30.09,WNW,292,0.0,2.0,100,0.00,,OVC055,0.00,VWS V14.00,2013-01-28 11:09:00,
2013-01-28 03:11:00,39.6,39.6,30.09,WNW,292,0.0,2.0,100,0.00,,OVC055,0.00,VWS V14.00,2013-01-28 11:11:00,
2013-01-28 03:14:00,39.4,39.4,30.09,SE,135,0.0,2.0,100,0.00,,OVC055,0.00,VWS V14.00,2013-01-28 11:14:00,
2013-01-28 03:16:00,39.4,39.4,30.09,ESE,112,0.0,2.0,100,0.00,,OVC036,0.00,VWS V14.00,2013-01-28 11:16:00,
2013-01-28 03:19:00,39.4,39.4,30.09,ESE,112,0.0,2.0,100,0.00,,OVC055,0.00,VWS V14.00,2013-01-28 11:19:00,
2013-01-28 03:21:00,39.4,39.4,30.09,ESE,112,0.0,2.0,100,0.00,,OVC055,0.00,VWS V14.00,2013-01-28 11:21:00,
2013-01-28 03:24:00,39.4,39.4,30.09,ESE,112,0.0,2.0,100,0.00,,OVC055,0.00,VWS V14.00,2013-01-28 11:24:00,
2013-01-28 03:26:00,39.4,39.4,30.09,ESE,112,0.0,2.0,100,0.00,,OVC055,0.00,VWS V14.00,2013-01-28 11:26:00,
2013-01-28 03:27:00,39.4,39.4,30.09,ESE,112,0.0,2.0,100,0.00,,OVC055,0.00,VWS V14.00,2013-01-28 11:27:00,
2013-01-28 03:29:00,39.4,39.4,30.09,East,90,0.0,2.0,100,0.00,,OVC055,0.00,VWS V14.00,2013-01-28 11:29:00,
2013-01-28 03:31:00,39.4,39.4,30.09,East,90,0.0,1.3,100,0.00,,BKN040,0.00,VWS V14.00,2013-01-28 11:31:00,
2013-01-28 03:32:00,39.4,39.4,30.09,East,90,0.0,0.0,100,0.00,,OVC039,0.00,VWS V14.00,2013-01-28 11:32:00,
2013-01-28 03:34:00,39.4,39.4,30.09,ESE,112,0.0,0.0,100,0.00,,OVC039,0.00,VWS V14.00,2013-01-28 11:34:00,
2013-01-28 03:36:00,39.4,39.4,30.09,ESE,112,0.0,0.0,100,0.00,,OVC039,0.00,VWS V14.00,2013-01-28 11:36:00,
2013-01-28 03:37:00,39.4,39.4,30.09,ESE,112,0.0,0.0,100,0.00,,OVC039,0.00,VWS V14.00,2013-01-28 11:37:00,
2013-01-28 03:39:00,39.4,39.4,30.09,ESE,112,0.0,0.0,100,0.00,,OVC039,0.00,VWS V14.00,2013-01-28 11:39:00,
2013-01-28 03:41:00,39.4,39.4,30.09,ESE,112,0.0,0.0,100,0.00,,OVC039,0.00,VWS V14.00,2013-01-28 11:41:00,
2013-01-28 03:42:00,39.4,39.4,30.09,ESE,112,0.0,0.0,100,0.00,,OVC039,0.00,VWS V14.00,2013-01-28 11:42:00,
2013-01-28 03:44:00,39.4,39.4,30.09,ESE,112,0.0,0.0,100,0.00,,OVC039,0.00,VWS V14.00,2013-01-28 11:44:00,
2013-01-28 03:46:00,39.4,39.4,30.09,ESE,112,0.0,0.0,100,0.00,,OVC039,0.00,VWS V14.00,2013-01-28 11:46:00,
2013-01-28 03:47:00,39.4,39.4,30.09,ESE,112,0.0,0.0,100,0.00,,OVC039,0.00,VWS V14.00,2013-01-28 11:47:00,
2013-01-28 03:49:00,39.2,39.2,30.09,ESE,112,0.0,0.0,100,0.00,,OVC065,0.00,VWS V14.00,2013-01-28 11:49:00,
2013-01-28 03:51:00,39.2,39.2,30.09,ESE,112,0.0,0.0,100,0.00,,OVC065,0.00,VWS V14.00,2013-01-28 11:51:00,
2013-01-28 03:52:00,39.2,39.2,30.09,ESE,112,0.0,0.0,100,0.00,,OVC065,0.00,VWS V14.00,2013-01-28 11:52:00,
2013-01-28 03:54:00,39.2,39.2,30.09,ESE,112,0.0,0.0,100,0.00,,OVC065,0.00,VWS V14.00,2013-01-28 11:54:00,
2013-01-28 03:56:00,39.2,39.2,30.09,ESE,112,0.0,0.0,100,0.00,,OVC065,0.00,VWS V14.00,2013-01-28 11:56:00,
2013-01-28 03:57:00,39.2,39.2,30.09,ESE,112,0.0,0.0,100,0.00,,OVC065,0.00,VWS V14.00,2013-01-28 11:57:00,
2013-01-28 03:59:00,39.2,39.2,30.09,ESE,112,0.0,0.0,100,0.00,,OVC065,0.00,VWS V14.00,2013-01-28 11:59:00,
2013-01-28 04:01:00,39.2,39.2,30.09,ESE,112,0.0,0.0,100,0.00,,OVC065,0.00,VWS V14.00,2013-01-28 12:01:00,
2013-01-28 04:02:00,39.2,39.2,30.09,ESE,112,0.0,0.0,100,0.00,,OVC065,0.00,VWS V14.00,2013-01-28 12:02:00,
2013-01-28 04:04:00,39.2,39.2,30.09,East,90,0.0,0.0,100,0.00,,OVC065,0.00,VWS V14.00,2013-01-28 12:04:00,
2013-01-28 04:06:00,39.2,39.2,30.09,East,90,0.0,0.0,100,0.00,,OVC065,0.00,VWS V14.00,2013-01-28 12:06:00,
2013-01-28 04:07:00,39.2,39.2,30.09,East,90,0.0,0.0,100,0.00,,OVC065,0.00,VWS V14.00,2013-01-28 12:07:00,
2013-01-28 04:09:00,39.2,39.2,30.09,East,90,0.0,0.0,100,0.00,,OVC065,0.00,VWS V14.00,2013-01-28 12:09:00,
2013-01-28 04:11:00,39.2,39.2,30.09,East,90,0.0,0.0,100,0.00,,OVC065,0.00,VWS V14.00,2013-01-28 12:11:00,
2013-01-28 04:12:00,39.2,39.2,30.09,East,90,0.0,0.0,100,0.00,,OVC065,0.00,VWS V14.00,2013-01-28 12:12:00,
2013-01-28 04:14:00,39.2,39.2,30.09,East,90,0.0,0.0,100,0.00,,OVC065,0.00,VWS V14.00,2013-01-28 12:14:00,
2013-01-28 04:16:00,39.2,39.2,30.09,ESE,112,0.0,0.0,100,0.00,,BKN040,0.00,VWS V14.00,2013-01-28 12:16:00,
2013-01-28 04:17:00,39.2,39.2,30.09,SE,135,0.0,0.0,100,0.00,,OVC039,0.00,VWS V14.00,2013-01-28 12:17:00,
2013-01-28 04:19:00,39.2,39.2,30.09,ESE,112,0.0,0.0,100,0.00,,OVC065,0.00,VWS V14.00,2013-01-28 12:19:00,
2013-01-28 04:21:00,39.2,39.2,30.09,ESE,112,0.0,0.0,100,0.00,,OVC065,0.00,VWS V14.00,2013-01-28 12:21:00,
2013-01-28 04:22:00,39.2,39.2,30.09,ESE,112,0.0,0.0,100,0.00,,OVC065,0.00,VWS V14.00,2013-01-28 12:22:00,
2013-01-28 04:24:00,39.0,39.0,30.09,ESE,112,0.0,0.0,100,0.00,,OVC065,0.00,VWS V14.00,2013-01-28 12:24:00,
2013-01-28 04:26:00,39.0,39.0,30.09,East,90,0.0,0.0,100,0.00,,OVC065,0.00,VWS V14.00,2013-01-28 12:26:00,
2013-01-28 04:27:00,39.0,39.0,30.09,East,90,0.0,0.0,100,0.00,,OVC065,0.00,VWS V14.00,2013-01-28 12:27:00,
2013-01-28 04:29:00,39.0,39.0,30.09,SSW,202,0.0,0.0,100,0.00,,OVC065,0.00,VWS V14.00,2013-01-28 12:29:00,
2013-01-28 04:31:00,39.0,39.0,30.09,East,90,0.0,0.0,100,0.00,,OVC065,0.00,VWS V14.00,2013-01-28 12:31:00,
2013-01-28 04:32:00,39.0,39.0,30.09,East,90,0.0,0.0,100,0.00,,BKN055,0.00,VWS V14.00,2013-01-28 12:32:00,
2013-01-28 04:34:00,39.0,39.0,30.09,East,90,0.0,0.0,100,0.00,,BKN055,0.00,VWS V14.00,2013-01-28 12:34:00,
2013-01-28 04:36:00,39.0,39.0,30.09,East,90,0.0,0.0,100,0.00,,BKN055,0.00,VWS V14.00,2013-01-28 12:36:00,
2013-01-28 04:37:00,39.0,39.0,30.09,East,90,0.0,0.0,100,0.00,,BKN055,0.00,VWS V14.00,2013-01-28 12:37:00,
2013-01-28 04:39:00,39.0,39.0,30.12,East,90,0.0,0.0,100,0.00,,BKN055,0.00,VWS V14.00,2013-01-28 12:39:00,
2013-01-28 04:41:00,39.0,39.0,30.12,ESE,112,0.0,0.0,100,0.00,,BKN055,0.00,VWS V14.00,2013-01-28 12:41:00,
2013-01-28 04:42:00,39.0,39.0,30.12,ESE,112,0.0,0.0,100,0.00,,BKN055,0.00,VWS V14.00,2013-01-28 12:42:00,
2013-01-28 04:44:00,39.0,39.0,30.12,East,90,0.0,0.0,100,0.00,,BKN055,0.00,VWS V14.00,2013-01-28 12:44:00,
2013-01-28 04:46:00,39.0,39.0,30.12,East,90,0.0,0.0,100,0.00,,BKN055,0.00,VWS V14.00,2013-01-28 12:46:00,
2013-01-28 04:47:00,39.0,39.0,30.12,East,90,0.0,0.0,100,0.00,,OVC065,0.00,VWS V14.00,2013-01-28 12:47:00,
2013-01-28 04:49:00,39.0,39.0,30.12,East,90,0.0,0.0,100,0.00,,OVC070,0.00,VWS V14.00,2013-01-28 12:49:00,
2013-01-28 04:51:00,39.0,39.0,30.12,East,90,0.0,0.0,100,0.00,,OVC070,0.00,VWS V14.00,2013-01-28 12:51:00,
2013-01-28 04:53:00,39.0,39.0,30.12,ENE,68,0.0,0.0,100,0.00,,OVC070,0.00,VWS V14.00,2013-01-28 12:53:00,
2013-01-28 04:54:00,39.2,39.2,30.09,ENE,68,0.0,0.0,100,0.00,,OVC070,0.00,VWS V14.00,2013-01-28 12:54:00,
2013-01-28 04:56:00,39.2,38.9,30.09,NNW,338,0.0,0.0,99,0.00,,OVC065,0.00,VWS V14.00,2013-01-28 12:56:00,
2013-01-28 04:58:00,39.2,38.9,30.09,East,90,0.0,0.0,99,0.00,,OVC070,0.00,VWS V14.00,2013-01-28 12:58:00,
2013-01-28 04:59:00,39.2,38.9,30.09,WNW,292,0.0,0.0,99,0.00,,OVC070,0.00,VWS V14.00,2013-01-28 12:59:00,
2013-01-28 05:01:00,39.2,38.9,30.09,WSW,248,1.6,2.5,99,0.00,,OVC070,0.00,VWS V14.00,2013-01-28 13:01:00,
2013-01-28 05:03:00,39.2,38.9,30.09,WSW,248,1.6,2.5,99,0.00,,OVC070,0.00,VWS V14.00,2013-01-28 13:03:00,
2013-01-28 05:04:00,39.4,39.1,30.09,WNW,292,1.1,2.5,99,0.00,,OVC065,0.00,VWS V14.00,2013-01-28 13:04:00,
2013-01-28 05:05:00,39.4,39.1,30.09,East,90,1.1,2.5,99,0.00,,OVC065,0.00,VWS V14.00,2013-01-28 13:05:00,
2013-01-28 05:06:00,39.4,39.1,30.09,WNW,292,0.9,2.5,99,0.00,,OVC070,0.00,VWS V14.00,2013-01-28 13:06:00,
2013-01-28 05:08:00,39.4,39.1,30.09,WNW,292,0.0,2.5,99,0.00,,OVC070,0.00,VWS V14.00,2013-01-28 13:08:00,
2013-01-28 05:10:00,39.4,39.1,30.12,East,90,0.0,2.5,99,0.00,,OVC070,0.00,VWS V14.00,2013-01-28 13:10:00,
2013-01-28 05:11:00,39.4,39.1,30.12,West,270,0.0,2.5,99,0.00,,OVC070,0.00,VWS V14.00,2013-01-28 13:11:00,
2013-01-28 05:13:00,39.4,39.1,30.12,WNW,292,0.0,2.5,99,0.00,,OVC070,0.00,VWS V14.00,2013-01-28 13:13:00,
2013-01-28 05:15:00,39.4,39.1,30.12,West,270,0.0,2.5,99,0.00,,OVC070,0.00,VWS V14.00,2013-01-28 13:15:00,
2013-01-28 05:16:00,39.4,39.1,30.12,WSW,248,0.0,2.5,99,0.00,,OVC065,0.00,VWS V14.00,2013-01-28 13:16:00,
2013-01-28 05:18:00,39.4,39.1,30.12,East,90,0.0,1.6,99,0.00,,OVC070,0.00,VWS V14.00,2013-01-28 13:18:00,
2013-01-28 05:20:00,39.4,39.1,30.12,WSW,248,0.0,1.1,99,0.00,,OVC070,0.00,VWS V14.00,2013-01-28 13:20:00,
2013-01-28 05:21:00,39.4,39.1,30.12,WSW,248,0.0,1.1,99,0.00,,OVC070,0.00,VWS V14.00,2013-01-28 13:21:00,
2013-01-28 05:23:00,39.4,39.1,30.12,SSW,202,0.0,0.0,99,0.00,,OVC070,0.00,VWS V14.00,2013-01-28 13:23:00,
2013-01-28 05:25:00,39.4,39.1,30.12,SSW,202,0.0,0.0,99,0.00,,OVC070,0.00,VWS V14.00,2013-01-28 13:25:00,
2013-01-28 05:26:00,39.4,39.1,30.12,West,270,0.0,0.0,99,0.00,,OVC070,0.00,VWS V14.00,2013-01-28 13:26:00,
2013-01-28 05:28:00,39.4,39.1,30.12,East,90,0.0,0.0,99,0.00,,OVC070,0.00,VWS V14.00,2013-01-28 13:28:00,
2013-01-28 05:30:00,39.2,38.9,30.12,East,90,0.0,0.0,99,0.00,,OVC070,0.00,VWS V14.00,2013-01-28 13:30:00,
2013-01-28 05:31:00,39.2,38.9,30.12,ESE,112,0.9,0.9,99,0.00,,OVC070,0.00,VWS V14.00,2013-01-28 13:31:00,
2013-01-28 05:33:00,39.2,38.9,30.12,ESE,112,0.9,0.9,99,0.00,,OVC055,0.00,VWS V14.00,2013-01-28 13:33:00,
2013-01-28 05:35:00,39.2,38.9,30.12,SW,225,0.0,0.9,99,0.00,,OVC055,0.00,VWS V14.00,2013-01-28 13:35:00,
2013-01-28 05:36:00,39.2,38.9,30.12,SW,225,0.0,0.9,99,0.00,,OVC055,0.00,VWS V14.00,2013-01-28 13:36:00,
2013-01-28 05:38:00,39.2,38.9,30.12,NW,315,0.0,0.9,99,0.00,,OVC055,0.00,VWS V14.00,2013-01-28 13:38:00,
2013-01-28 05:40:00,39.2,38.9,30.12,ENE,68,0.0,0.9,99,0.00,,OVC055,0.00,VWS V14.00,2013-01-28 13:40:00,
2013-01-28 05:42:00,39.2,38.9,30.12,East,90,0.0,0.9,99,0.00,,OVC055,0.00,VWS V14.00,2013-01-28 13:42:00,
2013-01-28 05:43:00,39.4,39.1,30.12,WNW,292,0.0,0.9,99,0.00,,OVC055,0.00,VWS V14.00,2013-01-28 13:43:00,
2013-01-28 05:45:00,39.4,39.1,30.12,ENE,68,0.0,0.9,99,0.00,,OVC055,0.00,VWS V14.00,2013-01-28 13:45:00,
2013-01-28 05:47:00,39.4,39.1,30.12,ESE,112,2.5,2.5,99,0.00,,OVC055,0.00,VWS V14.00,2013-01-28 13:47:00,
2013-01-28 05:48:00,39.4,39.1,30.12,South,180,1.3,2.5,99,0.00,,OVC070,0.00,VWS V14.00,2013-01-28 13:48:00,
2013-01-28 05:50:00,39.6,39.3,30.12,South,180,1.3,2.5,99,0.00,,OVC065,0.00,VWS V14.00,2013-01-28 13:50:00,
2013-01-28 05:52:00,39.4,39.1,30.12,WSW,248,0.0,2.5,99,0.00,,OVC065,0.00,VWS V14.00,2013-01-28 13:52:00,
2013-01-28 05:53:00,39.4,39.1,30.12,ENE,68,0.0,2.5,99,0.00,,OVC065,0.00,VWS V14.00,2013-01-28 13:53:00,
2013-01-28 05:55:00,39.6,39.3,30.12,ESE,112,0.0,2.5,99,0.00,,OVC065,0.00,VWS V14.00,2013-01-28 13:55:00,
2013-01-28 05:57:00,39.6,39.3,30.12,ENE,68,0.0,1.3,99,0.00,,OVC070,0.00,VWS V14.00,2013-01-28 13:57:00,
2013-01-28 05:58:00,39.6,39.3,30.12,ENE,68,0.0,1.3,99,0.00,,OVC065,0.00,VWS V14.00,2013-01-28 13:58:00,
2013-01-28 06:00:00,39.6,39.3,30.12,East,90,0.9,2.2,99,0.00,,OVC065,0.00,VWS V14.00,2013-01-28 14:00:00,
2013-01-28 06:02:00,39.6,39.3,30.12,West,270,0.0,2.2,99,0.00,,OVC065,0.00,VWS V14.00,2013-01-28 14:02:00,
2013-01-28 06:03:00,39.6,39.3,30.12,NNW,338,2.9,2.9,99,0.00,,OVC065,0.00,VWS V14.00,2013-01-28 14:03:00,
2013-01-28 06:05:00,39.6,39.3,30.12,WNW,292,0.0,2.9,99,0.00,,OVC070,0.00,VWS V14.00,2013-01-28 14:05:00,
2013-01-28 06:07:00,39.6,39.3,30.12,ESE,112,0.9,2.9,99,0.00,,OVC065,0.00,VWS V14.00,2013-01-28 14:07:00,
2013-01-28 06:08:00,39.6,39.3,30.12,SE,135,0.9,1.1,99,0.00,,OVC065,0.00,VWS V14.00,2013-01-28 14:08:00,
2013-01-28 06:10:00,39.6,39.3,30.12,WNW,292,0.0,2.5,99,0.00,,OVC065,0.00,VWS V14.00,2013-01-28 14:10:00,
2013-01-28 06:12:00,39.6,39.3,30.12,West,270,0.0,2.5,99,0.00,,OVC065,0.00,VWS V14.00,2013-01-28 14:12:00,
2013-01-28 06:13:00,39.6,39.3,30.12,West,270,0.0,2.5,99,0.00,,OVC065,0.00,VWS V14.00,2013-01-28 14:13:00,
2013-01-28 06:15:00,39.6,39.3,30.12,ENE,68,0.0,0.0,99,0.00,,OVC065,0.00,VWS V14.00,2013-01-28 14:15:00,
2013-01-28 06:17:00,39.6,39.3,30.12,WSW,248,0.0,0.0,99,0.00,,OVC070,0.00,VWS V14.00,2013-01-28 14:17:00,
2013-01-28 06:18:00,39.6,39.3,30.12,WSW,248,0.0,0.0,99,0.00,,OVC065,0.00,VWS V14.00,2013-01-28 14:18:00,
2013-01-28 06:20:00,39.6,39.3,30.12,ENE,68,0.0,0.0,99,0.00,,OVC065,0.00,VWS V14.00,2013-01-28 14:20:00,
2013-01-28 06:22:00,39.6,39.3,30.12,ENE,68,0.0,0.0,99,0.00,,OVC065,0.00,VWS V14.00,2013-01-28 14:22:00,
2013-01-28 06:23:00,39.7,39.5,30.12,ESE,112,1.3,1.3,99,0.00,,OVC065,0.00,VWS V14.00,2013-01-28 14:23:00,
2013-01-28 06:25:00,39.7,39.5,30.12,NNE,22,0.0,1.3,99,0.00,,OVC065,0.00,VWS V14.00,2013-01-28 14:25:00,
2013-01-28 06:27:00,39.7,39.5,30.12,NNE,22,0.0,1.3,99,0.00,,OVC065,0.00,VWS V14.00,2013-01-28 14:27:00,
2013-01-28 06:28:00,39.7,39.5,30.12,West,270,0.0,0.0,99,0.00,,OVC065,0.00,VWS V14.00,2013-01-28 14:28:00,
2013-01-28 06:30:00,39.7,39.5,30.12,NW,315,0.9,0.9,99,0.00,,OVC065,0.00,VWS V14.00,2013-01-28 14:30:00,
2013-01-28 06:32:00,39.7,39.5,30.12,NNW,338,0.0,0.9,99,0.00,,OVC022,0.00,VWS V14.00,2013-01-28 14:32:00,
2013-01-28 06:33:00,39.7,39.5,30.12,North,0,0.0,0.9,99,0.00,,OVC022,0.00,VWS V14.00,2013-01-28 14:33:00,
2013-01-28 06:35:00,39.7,39.5,30.12,NE,45,0.0,0.9,99,0.00,,OVC022,0.00,VWS V14.00,2013-01-28 14:35:00,
2013-01-28 06:37:00,39.7,39.5,30.12,West,270,0.0,3.4,99,0.00,,OVC022,0.00,VWS V14.00,2013-01-28 14:37:00,
2013-01-28 06:38:00,39.7,39.5,30.12,NE,45,0.9,3.4,99,0.00,,OVC022,0.00,VWS V14.00,2013-01-28 14:38:00,
2013-01-28 06:40:00,39.7,39.5,30.12,NNW,338,0.0,3.4,99,0.00,,OVC022,0.00,VWS V14.00,2013-01-28 14:40:00,
2013-01-28 06:42:00,39.7,39.5,30.12,NNW,338,0.0,3.4,99,0.00,,OVC022,0.00,VWS V14.00,2013-01-28 14:42:00,
2013-01-28 06:43:00,39.7,39.5,30.12,NNW,338,0.0,3.4,99,0.00,,OVC022,0.00,VWS V14.00,2013-01-28 14:43:00,
2013-01-28 06:45:00,39.7,39.5,30.12,NNW,338,0.0,3.4,99,0.00,,OVC022,0.00,VWS V14.00,2013-01-28 14:45:00,
2013-01-28 06:46:00,39.7,39.5,30.12,NNW,338,0.0,3.4,99,0.00,,OVC022,0.00,VWS V14.00,2013-01-28 14:46:00,
2013-01-28 06:47:00,39.7,39.5,30.12,NNW,338,0.0,3.4,99,0.00,,OVC022,0.00,VWS V14.00,2013-01-28 14:47:00,
2013-01-28 06:48:00,39.7,39.5,30.12,NNW,338,0.0,3.4,99,0.00,,OVC023,0.00,VWS V14.00,2013-01-28 14:48:00,
2013-01-28 06:51:00,39.7,39.5,30.12,NNW,338,0.0,3.4,99,0.00,,OVC023,0.00,VWS V14.00,2013-01-28 14:51:00,
2013-01-28 06:52:00,39.7,39.5,30.12,NNW,338,0.0,3.4,99,0.00,,OVC023,0.00,VWS V14.00,2013-01-28 14:52:00,
2013-01-28 06:53:00,39.7,39.5,30.12,NNW,338,0.0,3.4,99,0.00,,OVC023,0.00,VWS V14.00,2013-01-28 14:53:00,
2013-01-28 06:56:00,39.7,39.5,30.12,East,90,0.0,0.9,99,0.00,,OVC023,0.00,VWS V14.00,2013-01-28 14:56:00,
2013-01-28 06:57:00,39.7,39.5,30.12,East,90,0.0,0.0,99,0.00,,OVC023,0.00,VWS V14.00,2013-01-28 14:57:00,
2013-01-28 06:58:00,39.7,39.5,30.12,East,90,0.0,0.0,99,0.00,,OVC023,0.00,VWS V14.00,2013-01-28 14:58:00,
2013-01-28 07:01:00,39.7,39.5,30.12,East,90,0.0,0.0,99,0.00,,OVC023,0.00,VWS V14.00,2013-01-28 15:01:00,
2013-01-28 07:02:00,39.7,39.5,30.12,East,90,0.0,0.0,99,0.00,,OVC023,0.00,VWS V14.00,2013-01-28 15:02:00,
2013-01-28 07:03:00,39.7,39.5,30.12,East,90,0.0,0.0,99,0.00,,OVC023,0.00,VWS V14.00,2013-01-28 15:03:00,
2013-01-28 07:06:00,39.7,39.5,30.12,East,90,0.0,0.0,99,0.00,,OVC023,0.00,VWS V14.00,2013-01-28 15:06:00,
2013-01-28 07:07:00,39.7,39.5,30.12,East,90,0.0,0.0,99,0.00,,OVC023,0.00,VWS V14.00,2013-01-28 15:07:00,
2013-01-28 07:09:00,39.7,39.5,30.12,East,90,0.0,0.0,99,0.00,,OVC023,0.00,VWS V14.00,2013-01-28 15:09:00,
2013-01-28 07:11:00,39.7,39.5,30.12,East,90,0.0,0.0,99,0.00,,OVC023,0.00,VWS V14.00,2013-01-28 15:11:00,
2013-01-28 07:12:00,39.7,39.5,30.12,East,90,0.0,0.0,99,0.00,,OVC023,0.00,VWS V14.00,2013-01-28 15:12:00,
2013-01-28 07:14:00,39.7,39.5,30.12,East,90,0.0,0.0,99,0.00,,OVC023,0.00,VWS V14.00,2013-01-28 15:14:00,
2013-01-28 07:16:00,39.7,39.5,30.12,East,90,0.0,0.0,99,0.00,,OVC023,0.00,VWS V14.00,2013-01-28 15:16:00,
2013-01-28 07:17:00,39.7,39.5,30.12,East,90,0.0,0.0,99,0.00,,OVC023,0.00,VWS V14.00,2013-01-28 15:17:00,
2013-01-28 07:19:00,39.7,39.5,30.12,East,90,0.0,0.0,99,0.00,,OVC023,0.00,VWS V14.00,2013-01-28 15:19:00,
2013-01-28 07:21:00,39.7,39.5,30.12,East,90,0.0,0.0,99,0.00,,OVC023,0.00,VWS V14.00,2013-01-28 15:21:00,
2013-01-28 07:23:00,39.7,39.5,30.12,East,90,0.0,0.0,99,0.00,,OVC023,0.00,VWS V14.00,2013-01-28 15:23:00,
2013-01-28 07:24:00,39.7,39.5,30.12,SSE,158,0.0,1.1,99,0.00,,OVC023,0.00,VWS V14.00,2013-01-28 15:24:00,
2013-01-28 07:26:00,39.7,39.5,30.12,ENE,68,0.0,1.1,99,0.00,,OVC023,0.00,VWS V14.00,2013-01-28 15:26:00,
2013-01-28 07:28:00,39.9,39.7,30.12,West,270,0.0,1.1,99,0.00,,OVC023,0.00,VWS V14.00,2013-01-28 15:28:00,
2013-01-28 07:29:00,39.9,39.7,30.12,West,270,0.0,1.1,99,0.00,,OVC023,0.00,VWS V14.00,2013-01-28 15:29:00,
2013-01-28 07:31:00,39.9,39.7,30.12,ESE,112,0.0,1.1,99,0.00,,OVC023,0.00,VWS V14.00,2013-01-28 15:31:00,
2013-01-28 07:33:00,39.9,39.7,30.12,WNW,292,0.0,2.5,99,0.00,,OVC033,0.00,VWS V14.00,2013-01-28 15:33:00,
2013-01-28 07:34:00,39.9,39.7,30.12,North,0,0.0,2.5,99,0.00,,OVC033,0.00,VWS V14.00,2013-01-28 15:34:00,
2013-01-28 07:36:00,39.9,39.7,30.12,WNW,292,0.0,2.5,99,0.00,,OVC033,0.00,VWS V14.00,2013-01-28 15:36:00,
2013-01-28 07:38:00,39.9,39.7,30.12,ENE,68,0.0,2.5,99,0.00,,OVC033,0.00,VWS V14.00,2013-01-28 15:38:00,
2013-01-28 07:39:00,40.1,39.8,30.12,NE,45,0.0,2.5,99,0.00,,OVC033,0.00,VWS V14.00,2013-01-28 15:39:00,
2013-01-28 07:41:00,39.9,39.7,30.12,East,90,0.0,2.5,99,0.00,,OVC033,0.00,VWS V14.00,2013-01-28 15:41:00,
2013-01-28 07:43:00,39.9,39.7,30.12,NNE,22,0.0,2.5,99,0.00,,OVC033,0.00,VWS V14.00,2013-01-28 15:43:00,
2013-01-28 07:44:00,39.9,39.7,30.12,NNE,22,0.0,2.5,99,0.00,,OVC033,0.00,VWS V14.00,2013-01-28 15:44:00,
2013-01-28 07:46:00,39.9,39.7,30.12,WSW,248,0.0,2.5,99,0.00,,OVC033,0.00,VWS V14.00,2013-01-28 15:46:00,
2013-01-28 07:48:00,39.9,39.7,30.12,NE,45,0.0,2.2,99,0.04,,OVC021,0.04,VWS V14.00,2013-01-28 15:48:00,
2013-01-28 07:49:00,39.9,39.7,30.12,SSW,202,0.0,2.2,99,0.04,,OVC021,0.04,VWS V14.00,2013-01-28 15:49:00,
2013-01-28 07:51:00,39.9,39.7,30.12,West,270,0.0,2.2,99,0.04,,OVC021,0.04,VWS V14.00,2013-01-28 15:51:00,
2013-01-28 07:53:00,39.9,39.7,30.12,WNW,292,1.3,2.2,99,0.04,,OVC021,0.04,VWS V14.00,2013-01-28 15:53:00,
2013-01-28 07:54:00,39.9,39.7,30.12,NW,315,0.0,2.2,99,0.04,,OVC021,0.04,VWS V14.00,2013-01-28 15:54:00,
2013-01-28 07:56:00,40.1,39.8,30.12,West,270,0.0,2.2,99,0.04,,OVC021,0.04,VWS V14.00,2013-01-28 15:56:00,
2013-01-28 07:57:00,40.1,39.8,30.12,East,90,0.0,2.2,99,0.04,,OVC021,0.04,VWS V14.00,2013-01-28 15:57:00,
2013-01-28 07:58:00,40.1,39.8,30.12,East,90,0.0,2.2,99,0.04,,OVC021,0.04,VWS V14.00,2013-01-28 15:58:00,
2013-01-28 07:59:00,40.1,39.8,30.12,WSW,248,0.0,2.7,99,0.04,,OVC021,0.04,VWS V14.00,2013-01-28 15:59:00,
2013-01-28 08:02:00,40.3,40.0,30.12,WNW,292,0.0,2.7,99,0.04,,OVC021,0.04,VWS V14.00,2013-01-28 16:02:00,
2013-01-28 08:03:00,40.3,40.0,30.12,WNW,292,0.0,2.7,99,0.04,,OVC021,0.04,VWS V14.00,2013-01-28 16:03:00,
2013-01-28 08:04:00,40.3,40.0,30.12,West,270,0.0,2.7,99,0.04,,BKN033,0.04,VWS V14.00,2013-01-28 16:04:00,
2013-01-28 08:07:00,40.3,40.0,30.12,NW,315,0.0,2.7,99,0.04,,OVC021,0.04,VWS V14.00,2013-01-28 16:07:00,
2013-01-28 08:08:00,40.3,40.0,30.12,East,90,0.0,2.7,99,0.04,,OVC021,0.04,VWS V14.00,2013-01-28 16:08:00,
2013-01-28 08:10:00,40.1,39.8,30.12,ESE,112,0.0,2.7,99,0.04,,OVC021,0.04,VWS V14.00,2013-01-28 16:10:00,
2013-01-28 08:12:00,40.1,39.8,30.12,SSW,202,1.6,2.7,99,0.04,,OVC021,0.04,VWS V14.00,2013-01-28 16:12:00,
2013-01-28 08:13:00,40.1,39.8,30.12,NNW,338,0.0,2.7,99,0.04,,OVC021,0.04,VWS V14.00,2013-01-28 16:13:00,
2013-01-28 08:15:00,40.1,39.8,30.12,West,270,1.3,2.7,99,0.04,,OVC021,0.04,VWS V14.00,2013-01-28 16:15:00,
2013-01-28 08:17:00,40.1,39.8,30.12,WNW,292,0.0,2.7,99,0.04,,OVC033,0.04,VWS V14.00,2013-01-28 16:17:00,
2013-01-28 08:18:00,40.1,39.8,30.12,WNW,292,0.0,2.2,99,0.04,,OVC021,0.04,VWS V14.00,2013-01-28 16:18:00,
2013-01-28 08:20:00,40.1,39.8,30.12,WNW,292,0.0,2.2,99,0.04,,OVC021,0.04,VWS V14.00,2013-01-28 16:20:00,
2013-01-28 08:22:00,40.1,39.8,30.12,ENE,68,1.1,2.2,99,0.04,,OVC021,0.04,VWS V14.00,2013-01-28 16:22:00,
2013-01-28 08:23:00,40.1,39.8,30.12,WNW,292,0.0,2.2,99,0.04,,OVC021,0.04,VWS V14.00,2013-01-28 16:23:00,
2013-01-28 08:25:00,40.3,40.0,30.12,WSW,248,0.0,2.0,99,0.04,,OVC021,0.04,VWS V14.00,2013-01-28 16:25:00,
2013-01-28 08:27:00,40.3,40.0,30.12,WSW,248,0.0,2.0,99,0.04,,OVC021,0.04,VWS V14.00,2013-01-28 16:27:00,
2013-01-28 08:28:00,40.3,40.0,30.12,WSW,248,0.0,2.0,99,0.04,,OVC021,0.04,VWS V14.00,2013-01-28 16:28:00,
2013-01-28 08:30:00,40.3,40.0,30.12,East,90,0.0,2.0,99,0.04,,OVC021,0.04,VWS V14.00,2013-01-28 16:30:00,
2013-01-28 08:32:00,40.3,40.0,30.12,ESE,112,0.0,1.1,99,0.04,,OVC021,0.04,VWS V14.00,2013-01-28 16:32:00,
2013-01-28 08:33:00,40.3,40.0,30.12,ENE,68,0.0,1.1,99,0.04,,OVC032,0.04,VWS V14.00,2013-01-28 16:33:00,
2013-01-28 08:35:00,40.3,40.0,30.12,WSW,248,1.1,1.1,99,0.04,,OVC032,0.04,VWS V14.00,2013-01-28 16:35:00,
2013-01-28 08:37:00,40.3,40.0,30.12,WNW,292,0.0,1.1,99,0.04,,OVC032,0.04,VWS V14.00,2013-01-28 16:37:00,
2013-01-28 08:38:00,40.3,40.0,30.12,NW,315,0.0,1.1,99,0.04,,OVC032,0.04,VWS V14.00,2013-01-28 16:38:00,
2013-01-28 08:40:00,40.3,40.0,30.12,WNW,292,0.0,1.1,99,0.04,,OVC032,0.04,VWS V14.00,2013-01-28 16:40:00,
2013-01-28 08:42:00,40.3,40.0,30.12,NNW,338,0.0,1.1,99,0.04,,OVC032,0.04,VWS V14.00,2013-01-28 16:42:00,
2013-01-28 08:43:00,40.5,40.2,30.12,ENE,68,0.0,1.1,99,0.04,,OVC032,0.04,VWS V14.00,2013-01-28 16:43:00,
2013-01-28 08:45:00,40.5,40.2,30.12,WNW,292,0.0,1.1,99,0.04,,OVC032,0.04,VWS V14.00,2013-01-28 16:45:00,
2013-01-28 08:47:00,40.5,40.2,30.12,WNW,292,2.0,2.0,99,0.04,,OVC032,0.04,VWS V14.00,2013-01-28 16:47:00,
2013-01-28 08:48:00,40.5,40.2,30.12,WSW,248,0.0,2.0,99,0.00,,OVC021,0.04,VWS V14.00,2013-01-28 16:48:00,
2013-01-28 08:50:00,40.5,40.2,30.12,WNW,292,1.6,2.0,99,0.00,,OVC032,0.04,VWS V14.00,2013-01-28 16:50:00,
2013-01-28 08:52:00,40.5,40.2,30.12,SE,135,0.0,2.0,99,0.00,,OVC021,0.04,VWS V14.00,2013-01-28 16:52:00,
2013-01-28 08:53:00,40.5,40.2,30.12,NNW,338,0.0,2.0,99,0.00,,OVC021,0.04,VWS V14.00,2013-01-28 16:53:00,
2013-01-28 08:55:00,40.5,40.2,30.12,SSE,158,0.0,2.0,99,0.00,,OVC021,0.04,VWS V14.00,2013-01-28 16:55:00,
2013-01-28 08:57:00,40.5,40.2,30.12,NNW,338,0.0,2.0,99,0.00,,OVC021,0.04,VWS V14.00,2013-01-28 16:57:00,
2013-01-28 08:58:00,40.5,40.2,30.12,North,0,0.0,2.0,99,0.00,,OVC021,0.04,VWS V14.00,2013-01-28 16:58:00,
2013-01-28 09:00:00,40.5,40.2,30.12,NE,45,0.0,2.0,99,0.00,,OVC021,0.04,VWS V14.00,2013-01-28 17:00:00,
2013-01-28 09:02:00,40.5,40.2,30.12,SSE,158,0.0,2.0,99,0.00,,OVC021,0.04,VWS V14.00,2013-01-28 17:02:00,
2013-01-28 09:03:00,40.5,40.2,30.12,SSE,158,0.0,2.0,99,0.00,,OVC021,0.04,VWS V14.00,2013-01-28 17:03:00,
2013-01-28 09:05:00,40.5,40.2,30.12,SSE,158,1.1,3.4,99,0.00,,OVC021,0.04,VWS V14.00,2013-01-28 17:05:00,
2013-01-28 09:07:00,40.5,40.2,30.12,WSW,248,2.2,3.4,99,0.00,,OVC021,0.04,VWS V14.00,2013-01-28 17:07:00,
2013-01-28 09:08:00,40.5,40.2,30.12,WNW,292,0.0,3.4,99,0.00,,OVC021,0.04,VWS V14.00,2013-01-28 17:08:00,
2013-01-28 09:10:00,40.5,40.2,30.12,ESE,112,0.0,3.4,99,0.00,,OVC021,0.04,VWS V14.00,2013-01-28 17:10:00,
2013-01-28 09:12:00,40.6,40.4,30.12,WNW,292,0.0,3.4,99,0.00,,OVC021,0.04,VWS V14.00,2013-01-28 17:12:00,
2013-01-28 09:13:00,40.6,40.4,30.12,WSW,248,0.0,3.4,99,0.00,,OVC021,0.04,VWS V14.00,2013-01-28 17:13:00,
2013-01-28 09:15:00,40.6,40.4,30.12,ENE,68,0.0,3.4,99,0.00,,OVC021,0.04,VWS V14.00,2013-01-28 17:15:00,
2013-01-28 09:17:00,40.6,40.4,30.12,WSW,248,0.0,3.4,99,0.00,,OVC021,0.04,VWS V14.00,2013-01-28 17:17:00,
2013-01-28 09:18:00,40.6,40.4,30.12,WSW,248,0.0,3.4,99,0.00,,OVC021,0.04,VWS V14.00,2013-01-28 17:18:00,
2013-01-28 09:20:00,40.6,40.4,30.12,East,90,1.3,3.4,99,0.00,,OVC021,0.04,VWS V14.00,2013-01-28 17:20:00,
2013-01-28 09:22:00,40.6,40.1,30.12,WNW,292,1.1,2.2,98,0.00,,OVC021,0.04,VWS V14.00,2013-01-28 17:22:00,
2013-01-28 09:23:00,40.6,40.1,30.12,SE,135,2.9,2.9,98,0.00,,OVC021,0.04,VWS V14.00,2013-01-28 17:23:00,
2013-01-28 09:25:00,40.6,40.1,30.15,WNW,292,0.9,2.9,98,0.00,,OVC021,0.04,VWS V14.00,2013-01-28 17:25:00,
2013-01-28 09:27:00,40.6,40.1,30.15,WNW,292,0.0,2.9,98,0.00,,OVC021,0.04,VWS V14.00,2013-01-28 17:27:00,
2013-01-28 09:28:00,40.6,40.1,30.15,SE,135,0.0,2.9,98,0.00,,OVC021,0.04,VWS V14.00,2013-01-28 17:28:00,
2013-01-28 09:30:00,40.6,40.1,30.15,WNW,292,0.0,2.9,98,0.00,,OVC021,0.04,VWS V14.00,2013-01-28 17:30:00,
2013-01-28 09:32:00,40.6,40.1,30.15,West,270,0.0,2.9,98,0.00,,OVC021,0.04,VWS V14.00,2013-01-28 17:32:00,
2013-01-28 09:33:00,40.6,40.1,30.15,West,270,0.0,2.9,98,0.00,,OVC021,0.04,VWS V14.00,2013-01-28 17:33:00,
2013-01-28 09:35:00,40.6,40.1,30.15,West,270,0.0,2.9,98,0.00,,OVC021,0.04,VWS V14.00,2013-01-28 17:35:00,
2013-01-28 09:37:00,40.6,40.1,30.15,WSW,248,0.0,2.9,98,0.00,,OVC021,0.04,VWS V14.00,2013-01-28 17:37:00,
2013-01-28 09:38:00,40.6,40.1,30.15,WNW,292,0.0,2.9,98,0.00,,OVC021,0.04,VWS V14.00,2013-01-28 17:38:00,
2013-01-28 09:40:00,40.6,40.1,30.15,WNW,292,0.0,0.9,98,0.00,,OVC021,0.04,VWS V14.00,2013-01-28 17:40:00,
2013-01-28 09:42:00,40.6,40.1,30.15,WNW,292,0.0,0.0,98,0.00,,OVC021,0.04,VWS V14.00,2013-01-28 17:42:00,
2013-01-28 09:43:00,40.6,40.1,30.15,WNW,292,0.0,0.0,98,0.00,,OVC021,0.04,VWS V14.00,2013-01-28 17:43:00,
2013-01-28 09:45:00,40.6,40.1,30.15,WSW,248,0.0,0.0,98,0.00,,OVC021,0.04,VWS V14.00,2013-01-28 17:45:00,
2013-01-28 09:47:00,40.6,40.1,30.15,SW,225,0.0,0.0,98,0.00,,OVC021,0.04,VWS V14.00,2013-01-28 17:47:00,
2013-01-28 09:48:00,40.6,40.1,30.15,WSW,248,0.0,0.0,98,0.00,,OVC015,0.04,VWS V14.00,2013-01-28 17:48:00,
2013-01-28 09:49:00,40.6,40.1,30.15,ESE,112,0.0,0.0,98,0.00,,OVC015,0.04,VWS V14.00,2013-01-28 17:49:00,
2013-01-28 09:50:00,40.8,40.3,30.15,ESE,112,1.3,1.3,98,0.00,,OVC015,0.04,VWS V14.00,2013-01-28 17:50:00,
2013-01-28 09:52:00,40.8,40.3,30.15,East,90,0.0,1.3,98,0.00,,OVC015,0.04,VWS V14.00,2013-01-28 17:52:00,
2013-01-28 09:53:00,40.8,40.3,30.15,East,90,0.0,1.3,98,0.00,,OVC015,0.04,VWS V14.00,2013-01-28 17:53:00,
2013-01-28 09:54:00,40.8,40.3,30.15,East,90,0.0,1.3,98,0.00,,OVC015,0.04,VWS V14.00,2013-01-28 17:54:00,
2013-01-28 09:55:00,41.0,40.5,30.15,WSW,248,0.0,1.3,98,0.00,,OVC015,0.04,VWS V14.00,2013-01-28 17:55:00,
2013-01-28 09:57:00,41.0,40.5,30.15,WNW,292,0.0,2.5,98,0.00,,OVC015,0.04,VWS V14.00,2013-01-28 17:57:00,
2013-01-28 09:58:00,41.0,40.2,30.15,ENE,68,0.0,2.5,97,0.00,,OVC015,0.04,VWS V14.00,2013-01-28 17:58:00,
2013-01-28 09:59:00,41.0,40.2,30.15,ENE,68,0.0,2.5,97,0.00,,OVC015,0.04,VWS V14.00,2013-01-28 17:59:00,
2013-01-28 10:00:00,41.0,40.2,30.15,ENE,68,0.0,2.5,97,0.00,,OVC015,0.04,VWS V14.00,2013-01-28 18:00:00,
2013-01-28 10:02:00,41.2,40.4,30.15,SE,135,0.0,2.5,97,0.00,,OVC015,0.04,VWS V14.00,2013-01-28 18:02:00,
2013-01-28 10:03:00,41.2,40.4,30.15,NNE,22,0.0,2.5,97,0.00,,OVC015,0.04,VWS V14.00,2013-01-28 18:03:00,
2013-01-28 10:04:00,41.2,40.4,30.15,NE,45,0.0,2.5,97,0.00,,OVC015,0.04,VWS V14.00,2013-01-28 18:04:00,
2013-01-28 10:05:00,41.2,40.4,30.15,WNW,292,0.0,2.5,97,0.00,,OVC015,0.04,VWS V14.00,2013-01-28 18:05:00,
2013-01-28 10:08:00,41.0,40.2,30.15,ENE,68,0.0,2.5,97,0.00,,OVC015,0.04,VWS V14.00,2013-01-28 18:08:00,
2013-01-28 10:09:00,41.0,40.2,30.15,SW,225,0.0,2.5,97,0.00,,OVC015,0.04,VWS V14.00,2013-01-28 18:09:00,
2013-01-28 10:10:00,41.0,40.2,30.15,NW,315,0.0,2.5,97,0.00,,OVC015,0.04,VWS V14.00,2013-01-28 18:10:00,
2013-01-28 10:13:00,41.0,40.2,30.15,WNW,292,0.0,2.5,97,0.00,,OVC015,0.04,VWS V14.00,2013-01-28 18:13:00,
2013-01-28 10:14:00,41.0,40.2,30.15,West,270,0.0,2.5,97,0.00,,OVC015,0.04,VWS V14.00,2013-01-28 18:14:00,
2013-01-28 10:15:00,41.0,40.2,30.15,WSW,248,0.0,0.0,97,0.00,,OVC015,0.04,VWS V14.00,2013-01-28 18:15:00,
2013-01-28 10:18:00,41.0,40.2,30.15,East,90,0.0,0.0,97,0.00,,OVC015,0.04,VWS V14.00,2013-01-28 18:18:00,
2013-01-28 10:19:00,41.0,40.2,30.15,East,90,0.0,0.0,97,0.00,,OVC015,0.04,VWS V14.00,2013-01-28 18:19:00,
2013-01-28 10:21:00,41.2,40.4,30.15,SSE,158,0.0,2.2,97,0.00,,OVC015,0.04,VWS V14.00,2013-01-28 18:21:00,
2013-01-28 10:23:00,41.2,40.4,30.15,SSE,158,0.0,2.2,97,0.00,,OVC015,0.04,VWS V14.00,2013-01-28 18:23:00,
2013-01-28 10:24:00,41.2,40.4,30.15,ENE,68,0.0,2.2,97,0.00,,OVC015,0.04,VWS V14.00,2013-01-28 18:24:00,
2013-01-28 10:26:00,41.2,40.4,30.15,East,90,0.0,2.2,97,0.00,,OVC015,0.04,VWS V14.00,2013-01-28 18:26:00,
2013-01-28 10:28:00,41.2,40.4,30.15,East,90,0.0,2.2,97,0.00,,OVC015,0.04,VWS V14.00,2013-01-28 18:28:00,
2013-01-28 10:29:00,41.2,40.4,30.15,ENE,68,1.3,2.2,97,0.00,,OVC015,0.04,VWS V14.00,2013-01-28 18:29:00,
2013-01-28 10:31:00,41.2,40.4,30.15,WNW,292,0.0,1.3,97,0.00,,OVC015,0.04,VWS V14.00,2013-01-28 18:31:00,
2013-01-28 10:33:00,41.4,40.6,30.15,ESE,112,0.0,1.3,97,0.00,,OVC015,0.04,VWS V14.00,2013-01-28 18:33:00,
2013-01-28 10:34:00,41.4,40.6,30.15,ENE,68,0.0,1.3,97,0.00,,OVC015,0.04,VWS V14.00,2013-01-28 18:34:00,
2013-01-28 10:36:00,41.4,40.6,30.15,WSW,248,0.0,1.3,97,0.00,,OVC015,0.04,VWS V14.00,2013-01-28 18:36:00,
2013-01-28 10:38:00,41.4,40.6,30.15,SSW,202,0.0,0.0,97,0.00,,OVC015,0.04,VWS V14.00,2013-01-28 18:38:00,
2013-01-28 10:39:00,41.5,40.8,30.15,ENE,68,0.0,0.0,97,0.00,,OVC015,0.04,VWS V14.00,2013-01-28 18:39:00,
2013-01-28 10:41:00,41.5,40.8,30.15,NNW,338,0.0,0.0,97,0.00,,OVC015,0.04,VWS V14.00,2013-01-28 18:41:00,
2013-01-28 10:43:00,41.5,40.8,30.15,East,90,0.0,0.0,97,0.00,,OVC015,0.04,VWS V14.00,2013-01-28 18:43:00,
2013-01-28 10:44:00,41.5,40.8,30.15,ENE,68,0.0,0.0,97,0.00,,OVC015,0.04,VWS V14.00,2013-01-28 18:44:00,
2013-01-28 10:46:00,41.5,40.8,30.15,WSW,248,0.0,2.0,97,0.00,,OVC015,0.04,VWS V14.00,2013-01-28 18:46:00,
2013-01-28 10:48:00,41.5,40.8,30.15,SE,135,0.0,2.0,97,0.00,,OVC015,0.04,VWS V14.00,2013-01-28 18:48:00,
2013-01-28 10:49:00,41.5,40.8,30.15,WNW,292,0.0,2.0,97,0.00,,OVC017,0.04,VWS V14.00,2013-01-28 18:49:00,
2013-01-28 10:51:00,41.5,40.8,30.15,East,90,0.0,2.0,97,0.00,,OVC017,0.04,VWS V14.00,2013-01-28 18:51:00,
2013-01-28 10:53:00,41.5,40.8,30.15,East,90,1.1,2.0,97,0.00,,OVC017,0.04,VWS V14.00,2013-01-28 18:53:00,
2013-01-28 10:54:00,41.5,40.8,30.15,SW,225,0.0,1.6,97,0.00,,OVC017,0.04,VWS V14.00,2013-01-28 18:54:00,
2013-01-28 10:56:00,41.5,40.8,30.15,NNW,338,0.0,1.1,97,0.00,,OVC017,0.04,VWS V14.00,2013-01-28 18:56:00,
2013-01-28 10:58:00,41.5,40.8,30.15,West,270,0.0,1.1,97,0.00,,OVC017,0.04,VWS V14.00,2013-01-28 18:58:00,
2013-01-28 10:59:00,41.5,40.8,30.15,West,270,0.0,1.1,97,0.00,,OVC017,0.04,VWS V14.00,2013-01-28 18:59:00,
2013-01-28 11:01:00,41.5,40.8,30.15,ENE,68,0.0,0.0,97,0.00,,OVC017,0.04,VWS V14.00,2013-01-28 19:01:00,
2013-01-28 11:03:00,41.7,40.9,30.15,ENE,68,0.0,0.0,97,0.00,,OVC017,0.04,VWS V14.00,2013-01-28 19:03:00,
2013-01-28 11:04:00,41.7,40.9,30.15,ENE,68,0.0,0.0,97,0.00,,OVC017,0.04,VWS V14.00,2013-01-28 19:04:00,
2013-01-28 11:06:00,41.7,40.9,30.15,West,270,0.0,0.0,97,0.00,,OVC017,0.04,VWS V14.00,2013-01-28 19:06:00,
2013-01-28 11:08:00,41.7,40.9,30.15,ENE,68,0.0,0.0,97,0.00,,OVC017,0.04,VWS V14.00,2013-01-28 19:08:00,
2013-01-28 11:09:00,41.7,40.9,30.15,East,90,2.2,2.2,97,0.00,,OVC017,0.04,VWS V14.00,2013-01-28 19:09:00,
2013-01-28 11:11:00,41.7,40.9,30.15,WSW,248,0.0,2.2,97,0.00,,OVC017,0.04,VWS V14.00,2013-01-28 19:11:00,
2013-01-28 11:13:00,41.7,40.9,30.15,ESE,112,0.0,2.2,97,0.00,,OVC017,0.04,VWS V14.00,2013-01-28 19:13:00,
2013-01-28 11:14:00,41.9,41.1,30.15,ESE,112,0.0,2.2,97,0.00,,OVC017,0.04,VWS V14.00,2013-01-28 19:14:00,
2013-01-28 11:16:00,41.9,41.1,30.15,ESE,112,0.0,2.2,97,0.00,,OVC017,0.04,VWS V14.00,2013-01-28 19:16:00,
2013-01-28 11:18:00,41.9,41.1,30.15,ESE,112,0.0,2.2,97,0.00,,OVC017,0.04,VWS V14.00,2013-01-28 19:18:00,
2013-01-28 11:19:00,41.9,41.1,30.15,East,90,0.0,0.0,97,0.00,,OVC017,0.04,VWS V14.00,2013-01-28 19:19:00,
2013-01-28 11:21:00,41.9,41.1,30.15,East,90,0.0,0.0,97,0.00,,OVC017,0.04,VWS V14.00,2013-01-28 19:21:00,
2013-01-28 11:23:00,41.9,41.1,30.15,East,90,0.0,0.0,97,0.00,,OVC017,0.04,VWS V14.00,2013-01-28 19:23:00,
2013-01-28 11:24:00,41.9,41.1,30.15,East,90,0.0,0.0,97,0.00,,OVC017,0.04,VWS V14.00,2013-01-28 19:24:00,
2013-01-28 11:26:00,41.9,41.1,30.15,East,90,0.0,0.0,97,0.00,,OVC017,0.04,VWS V14.00,2013-01-28 19:26:00,
2013-01-28 11:28:00,42.3,41.5,30.15,WSW,248,0.0,4.3,97,0.00,,OVC017,0.04,VWS V14.00,2013-01-28 19:28:00,
2013-01-28 11:29:00,42.3,41.5,30.15,ESE,112,0.0,4.3,97,0.00,,OVC017,0.04,VWS V14.00,2013-01-28 19:29:00,
2013-01-28 11:31:00,42.3,41.5,30.15,West,270,0.0,4.3,97,0.00,,OVC017,0.04,VWS V14.00,2013-01-28 19:31:00,
2013-01-28 11:33:00,42.3,41.5,30.15,ESE,112,0.0,4.3,97,0.00,,OVC017,0.04,VWS V14.00,2013-01-28 19:33:00,
2013-01-28 11:34:00,42.3,41.5,30.15,ENE,68,1.1,4.3,97,0.00,,OVC017,0.04,VWS V14.00,2013-01-28 19:34:00,
2013-01-28 11:36:00,42.3,41.5,30.15,SE,135,0.0,4.3,97,0.00,,OVC017,0.04,VWS V14.00,2013-01-28 19:36:00,
2013-01-28 11:38:00,42.3,41.5,30.15,East,90,0.0,4.3,97,0.00,,OVC017,0.04,VWS V14.00,2013-01-28 19:38:00,
2013-01-28 11:39:00,42.3,41.5,30.15,ESE,112,0.0,4.3,97,0.00,,OVC017,0.04,VWS V14.00,2013-01-28 19:39:00,
2013-01-28 11:41:00,42.3,41.5,30.15,WSW,248,0.0,4.3,97,0.00,,OVC017,0.04,VWS V14.00,2013-01-28 19:41:00,
2013-01-28 11:43:00,42.4,41.7,30.15,SSE,158,0.0,4.3,97,0.00,,OVC017,0.04,VWS V14.00,2013-01-28 19:43:00,
2013-01-28 11:44:00,42.4,41.7,30.15,SSE,158,0.0,1.1,97,0.00,,OVC017,0.04,VWS V14.00,2013-01-28 19:44:00,
2013-01-28 11:46:00,42.4,41.7,30.15,SE,135,0.0,1.1,97,0.00,,OVC017,0.04,VWS V14.00,2013-01-28 19:46:00,
2013-01-28 11:48:00,42.4,41.7,30.15,West,270,0.0,1.1,97,0.00,,OVC017,0.04,VWS V14.00,2013-01-28 19:48:00,
2013-01-28 11:49:00,42.4,41.7,30.15,West,270,0.0,1.1,97,0.00,,OVC017,0.04,VWS V14.00,2013-01-28 19:49:00,
2013-01-28 11:51:00,42.4,41.7,30.15,West,270,0.0,1.1,97,0.00,,OVC017,0.04,VWS V14.00,2013-01-28 19:51:00,
2013-01-28 11:53:00,42.4,41.7,30.15,West,270,0.0,0.9,97,0.00,,OVC017,0.04,VWS V14.00,2013-01-28 19:53:00,
2013-01-28 11:54:00,42.4,41.7,30.15,West,270,0.0,0.9,97,0.00,,OVC017,0.04,VWS V14.00,2013-01-28 19:54:00,
2013-01-28 11:56:00,42.4,41.7,30.15,ENE,68,0.0,0.9,97,0.00,,OVC015,0.04,VWS V14.00,2013-01-28 19:56:00,
2013-01-28 11:58:00,42.4,41.7,30.15,ENE,68,0.0,0.0,97,0.00,,OVC017,0.04,VWS V14.00,2013-01-28 19:58:00,
2013-01-28 11:59:00,42.4,41.7,30.15,East,90,0.0,0.0,97,0.00,,OVC017,0.04,VWS V14.00,2013-01-28 19:59:00,
2013-01-28 12:01:00,42.4,41.7,30.15,East,90,0.0,0.0,97,0.00,,OVC017,0.04,VWS V14.00,2013-01-28 20:01:00,
2013-01-28 12:03:00,42.4,41.7,30.15,East,90,0.0,0.0,97,0.00,,OVC017,0.04,VWS V14.00,2013-01-28 20:03:00,
2013-01-28 12:04:00,42.4,41.7,30.15,East,90,0.0,0.0,97,0.00,,OVC017,0.04,VWS V14.00,2013-01-28 20:04:00,
2013-01-28 12:06:00,42.4,41.7,30.15,East,90,0.0,0.0,97,0.00,,OVC017,0.04,VWS V14.00,2013-01-28 20:06:00,
2013-01-28 12:08:00,42.4,41.7,30.12,East,90,0.0,0.0,97,0.00,,OVC017,0.04,VWS V14.00,2013-01-28 20:08:00,
2013-01-28 12:09:00,42.4,41.7,30.12,East,90,0.0,0.0,97,0.00,,OVC017,0.04,VWS V14.00,2013-01-28 20:09:00,
2013-01-28 12:11:00,42.4,41.7,30.12,East,90,0.0,0.0,97,0.00,,OVC017,0.04,VWS V14.00,2013-01-28 20:11:00,
2013-01-28 12:13:00,42.4,41.9,30.12,East,90,0.0,0.0,98,0.00,,OVC017,0.04,VWS V14.00,2013-01-28 20:13:00,
2013-01-28 12:14:00,42.4,41.9,30.12,East,90,0.0,0.0,98,0.00,,OVC017,0.04,VWS V14.00,2013-01-28 20:14:00,
2013-01-28 12:16:00,42.4,41.9,30.12,East,90,0.0,0.0,98,0.00,,OVC017,0.04,VWS V14.00,2013-01-28 20:16:00,
2013-01-28 12:18:00,42.4,41.9,30.12,East,90,0.0,0.0,98,0.00,,OVC017,0.04,VWS V14.00,2013-01-28 20:18:00,
2013-01-28 12:19:00,42.4,41.9,30.12,East,90,0.0,0.0,98,0.00,,OVC015,0.04,VWS V14.00,2013-01-28 20:19:00,
2013-01-28 12:21:00,42.6,42.1,30.12,East,90,0.0,0.0,98,0.00,,OVC017,0.04,VWS V14.00,2013-01-28 20:21:00,
2013-01-28 12:23:00,42.6,42.1,30.12,East,90,0.0,0.0,98,0.00,,OVC015,0.04,VWS V14.00,2013-01-28 20:23:00,
2013-01-28 12:24:00,42.6,42.1,30.12,East,90,0.0,0.0,98,0.00,,OVC015,0.04,VWS V14.00,2013-01-28 20:24:00,
2013-01-28 12:26:00,42.6,42.1,30.12,East,90,0.0,0.0,98,0.00,,OVC015,0.04,VWS V14.00,2013-01-28 20:26:00,
2013-01-28 12:28:00,42.6,42.1,30.12,East,90,0.0,0.0,98,0.00,,OVC017,0.04,VWS V14.00,2013-01-28 20:28:00,
2013-01-28 12:29:00,42.6,42.1,30.12,East,90,0.0,0.0,98,0.00,,OVC015,0.04,VWS V14.00,2013-01-28 20:29:00,
2013-01-28 12:31:00,42.6,42.1,30.12,East,90,0.9,2.0,98,0.00,,OVC031,0.04,VWS V14.00,2013-01-28 20:31:00,
2013-01-28 12:33:00,42.6,42.1,30.12,East,90,0.0,2.0,98,0.00,,OVC030,0.04,VWS V14.00,2013-01-28 20:33:00,
2013-01-28 12:34:00,42.6,42.1,30.12,East,90,0.0,2.0,98,0.00,,OVC030,0.04,VWS V14.00,2013-01-28 20:34:00,
2013-01-28 12:36:00,42.6,42.1,30.12,ENE,68,0.0,2.0,98,0.00,,OVC030,0.04,VWS V14.00,2013-01-28 20:36:00,
2013-01-28 12:38:00,42.6,42.1,30.12,East,90,0.0,2.0,98,0.00,,OVC030,0.04,VWS V14.00,2013-01-28 20:38:00,
2013-01-28 12:39:00,42.6,42.1,30.12,East,90,2.7,2.7,98,0.00,,OVC030,0.04,VWS V14.00,2013-01-28 20:39:00,
2013-01-28 12:40:00,42.6,42.1,30.12,East,90,2.7,2.7,98,0.00,,OVC030,0.04,VWS V14.00,2013-01-28 20:40:00,
2013-01-28 12:41:00,42.6,42.1,30.12,East,90,1.1,2.7,98,0.00,,OVC030,0.04,VWS V14.00,2013-01-28 20:41:00,
2013-01-28 12:43:00,42.6,42.1,30.12,East,90,0.0,2.7,98,0.00,,OVC030,0.04,VWS V14.00,2013-01-28 20:43:00,
2013-01-28 12:44:00,42.6,42.1,30.12,East,90,0.0,2.7,98,0.00,,OVC030,0.04,VWS V14.00,2013-01-28 20:44:00,
2013-01-28 12:45:00,42.6,42.1,30.12,East,90,0.0,2.7,98,0.00,,OVC030,0.04,VWS V14.00,2013-01-28 20:45:00,
2013-01-28 12:46:00,42.6,42.1,30.12,East,90,1.3,2.7,98,0.00,,OVC030,0.04,VWS V14.00,2013-01-28 20:46:00,
2013-01-28 12:48:00,42.6,42.1,30.12,East,90,2.0,2.7,98,0.00,,OVC025,0.04,VWS V14.00,2013-01-28 20:48:00,
2013-01-28 12:49:00,42.6,42.1,30.12,East,90,1.1,2.7,98,0.00,,OVC025,0.04,VWS V14.00,2013-01-28 20:49:00,
2013-01-28 12:50:00,42.6,42.1,30.12,East,90,1.1,2.7,98,0.00,,OVC025,0.04,VWS V14.00,2013-01-28 20:50:00,
2013-01-28 12:51:00,42.6,42.1,30.12,East,90,2.5,2.7,98,0.00,,OVC025,0.04,VWS V14.00,2013-01-28 20:51:00,
2013-01-28 12:54:00,42.6,42.1,30.12,East,90,0.0,3.4,98,0.00,,OVC025,0.04,VWS V14.00,2013-01-28 20:54:00,
2013-01-28 12:55:00,42.4,41.9,30.12,East,90,0.0,3.4,98,0.00,,OVC025,0.04,VWS V14.00,2013-01-28 20:55:00,
2013-01-28 12:56:00,42.6,42.1,30.12,East,90,0.0,3.4,98,0.00,,OVC030,0.04,VWS V14.00,2013-01-28 20:56:00,
2013-01-28 12:59:00,42.6,42.1,30.12,East,90,0.0,3.4,98,0.04,,OVC025,0.08,VWS V14.00,2013-01-28 20:59:00,
2013-01-28 13:00:00,42.6,42.1,30.12,East,90,1.6,3.4,98,0.04,,OVC025,0.08,VWS V14.00,2013-01-28 21:00:00,
2013-01-28 13:01:00,42.6,42.1,30.12,East,90,1.3,3.4,98,0.04,,OVC025,0.08,VWS V14.00,2013-01-28 21:01:00,
2013-01-28 13:04:00,42.6,42.1,30.12,WNW,292,0.0,3.4,98,0.04,,OVC025,0.08,VWS V14.00,2013-01-28 21:04:00,
2013-01-28 13:05:00,42.6,42.1,30.12,WNW,292,0.0,3.4,98,0.04,,OVC031,0.08,VWS V14.00,2013-01-28 21:05:00,
2013-01-28 13:07:00,42.6,42.1,30.12,SSW,202,0.0,3.4,98,0.04,,OVC025,0.08,VWS V14.00,2013-01-28 21:07:00,
2013-01-28 13:09:00,42.6,42.1,30.12,East,90,0.0,3.4,98,0.04,,OVC025,0.08,VWS V14.00,2013-01-28 21:09:00,
2013-01-28 13:10:00,42.8,42.3,30.12,East,90,1.3,1.6,98,0.04,,OVC025,0.08,VWS V14.00,2013-01-28 21:10:00,
2013-01-28 13:12:00,42.8,42.3,30.12,East,90,0.0,1.6,98,0.04,,OVC025,0.08,VWS V14.00,2013-01-28 21:12:00,
2013-01-28 13:14:00,42.8,42.3,30.12,East,90,0.0,1.6,98,0.04,,OVC025,0.08,VWS V14.00,2013-01-28 21:14:00,
2013-01-28 13:15:00,42.8,42.3,30.12,SSW,202,0.0,1.6,98,0.04,,OVC025,0.08,VWS V14.00,2013-01-28 21:15:00,
2013-01-28 13:17:00,42.8,42.3,30.12,WSW,248,0.0,1.3,98,0.04,,OVC025,0.08,VWS V14.00,2013-01-28 21:17:00,
2013-01-28 13:19:00,42.8,42.3,30.12,ESE,112,0.0,1.3,98,0.04,,OVC030,0.08,VWS V14.00,2013-01-28 21:19:00,
2013-01-28 13:20:00,42.8,42.3,30.12,ESE,112,0.0,1.3,98,0.04,,OVC030,0.08,VWS V14.00,2013-01-28 21:20:00,
2013-01-28 13:22:00,42.8,42.3,30.12,East,90,0.0,1.3,98,0.04,,OVC030,0.08,VWS V14.00,2013-01-28 21:22:00,
2013-01-28 13:24:00,42.8,42.3,30.12,East,90,0.0,1.3,98,0.04,,OVC030,0.08,VWS V14.00,2013-01-28 21:24:00,
2013-01-28 13:25:00,42.8,42.3,30.12,ESE,112,0.0,1.3,98,0.04,,OVC030,0.08,VWS V14.00,2013-01-28 21:25:00,
2013-01-28 13:27:00,42.6,42.1,30.12,ESE,112,0.0,1.3,98,0.04,,OVC030,0.08,VWS V14.00,2013-01-28 21:27:00,
2013-01-28 13:29:00,42.6,42.1,30.12,ESE,112,0.0,0.0,98,0.04,,OVC030,0.08,VWS V14.00,2013-01-28 21:29:00,
2013-01-28 13:30:00,42.6,42.1,30.12,ESE,112,0.0,0.0,98,0.04,,OVC030,0.08,VWS V14.00,2013-01-28 21:30:00,
2013-01-28 13:32:00,42.6,42.1,30.12,ESE,112,1.3,1.3,98,0.04,,OVC024,0.08,VWS V14.00,2013-01-28 21:32:00,
2013-01-28 13:34:00,42.6,42.1,30.12,ESE,112,0.0,1.3,98,0.04,,OVC024,0.08,VWS V14.00,2013-01-28 21:34:00,
2013-01-28 13:35:00,42.6,42.1,30.12,East,90,1.1,1.3,98,0.04,,OVC024,0.08,VWS V14.00,2013-01-28 21:35:00,
2013-01-28 13:37:00,42.6,42.1,30.12,ESE,112,0.0,1.3,98,0.08,,OVC024,0.12,VWS V14.00,2013-01-28 21:37:00,
2013-01-28 13:39:00,42.6,42.1,30.12,East,90,2.5,2.5,98,0.08,,OVC024,0.12,VWS V14.00,2013-01-28 21:39:00,
2013-01-28 13:40:00,42.6,42.1,30.12,East,90,0.0,2.5,98,0.08,,OVC024,0.12,VWS V14.00,2013-01-28 21:40:00,
2013-01-28 13:42:00,42.6,42.1,30.12,East,90,0.9,2.5,98,0.08,,OVC024,0.12,VWS V14.00,2013-01-28 21:42:00,
2013-01-28 13:44:00,42.6,42.1,30.12,ENE,68,0.0,2.5,98,0.08,,OVC024,0.12,VWS V14.00,2013-01-28 21:44:00,
2013-01-28 13:45:00,42.6,42.1,30.12,ENE,68,2.9,2.9,98,0.08,,OVC024,0.12,VWS V14.00,2013-01-28 21:45:00,
2013-01-28 13:47:00,42.6,42.1,30.12,WNW,292,1.1,3.1,98,0.08,,OVC024,0.12,VWS V14.00,2013-01-28 21:47:00,
2013-01-28 13:49:00,42.8,42.3,30.12,NE,45,0.0,3.1,98,0.08,,OVC026,0.12,VWS V14.00,2013-01-28 21:49:00,
2013-01-28 13:50:00,42.8,42.3,30.12,NE,45,0.0,3.1,98,0.08,,OVC026,0.12,VWS V14.00,2013-01-28 21:50:00,
2013-01-28 13:52:00,42.6,42.1,30.12,East,90,0.0,3.1,98,0.08,,OVC026,0.12,VWS V14.00,2013-01-28 21:52:00,
2013-01-28 13:54:00,42.6,42.1,30.12,East,90,0.0,3.1,98,0.08,,OVC026,0.12,VWS V14.00,2013-01-28 21:54:00,
2013-01-28 13:55:00,42.6,42.1,30.12,WSW,248,0.0,3.1,98,0.08,,OVC026,0.12,VWS V14.00,2013-01-28 21:55:00,
2013-01-28 13:57:00,42.6,42.1,30.12,ENE,68,0.0,3.1,98,0.08,,OVC026,0.12,VWS V14.00,2013-01-28 21:57:00,
2013-01-28 13:59:00,42.6,42.1,30.12,East,90,0.0,3.1,98,0.04,,OVC026,0.12,VWS V14.00,2013-01-28 21:59:00,
2013-01-28 14:00:00,42.4,41.9,30.12,East,90,0.0,3.1,98,0.04,,OVC026,0.12,VWS V14.00,2013-01-28 22:00:00,
2013-01-28 14:02:00,42.6,42.1,30.12,SE,135,0.0,3.1,98,0.04,,OVC026,0.12,VWS V14.00,2013-01-28 22:02:00,
2013-01-28 14:04:00,42.4,41.9,30.12,SE,135,0.0,3.1,98,0.04,,OVC026,0.12,VWS V14.00,2013-01-28 22:04:00,
2013-01-28 14:05:00,42.4,41.9,30.12,SSE,158,0.9,1.1,98,0.04,,OVC024,0.12,VWS V14.00,2013-01-28 22:05:00,
2013-01-28 14:07:00,42.4,41.9,30.12,NNW,338,0.0,0.9,98,0.04,,OVC026,0.12,VWS V14.00,2013-01-28 22:07:00,
2013-01-28 14:09:00,42.6,42.1,30.12,ESE,112,0.0,0.9,98,0.04,,OVC026,0.12,VWS V14.00,2013-01-28 22:09:00,
2013-01-28 14:10:00,42.6,42.1,30.12,ESE,112,0.0,0.9,98,0.04,,OVC026,0.12,VWS V14.00,2013-01-28 22:10:00,
2013-01-28 14:12:00,42.6,42.1,30.12,SE,135,0.0,0.9,98,0.04,,OVC026,0.12,VWS V14.00,2013-01-28 22:12:00,
2013-01-28 14:14:00,42.6,42.1,30.12,SE,135,0.0,0.9,98,0.04,,OVC026,0.12,VWS V14.00,2013-01-28 22:14:00,
2013-01-28 14:15:00,42.6,42.1,30.12,WSW,248,0.0,0.9,98,0.04,,OVC026,0.12,VWS V14.00,2013-01-28 22:15:00,
2013-01-28 14:16:00,42.6,42.1,30.12,WSW,248,0.0,0.9,98,0.04,,OVC026,0.12,VWS V14.00,2013-01-28 22:16:00,
2013-01-28 14:17:00,42.6,42.1,30.12,ENE,68,0.0,0.9,98,0.04,,OVC026,0.12,VWS V14.00,2013-01-28 22:17:00,
2013-01-28 14:19:00,42.6,42.1,30.12,ENE,68,0.0,0.9,98,0.04,,OVC026,0.12,VWS V14.00,2013-01-28 22:19:00,
2013-01-28 14:20:00,42.6,42.1,30.12,East,90,0.0,0.9,98,0.04,,OVC026,0.12,VWS V14.00,2013-01-28 22:20:00,
2013-01-28 14:21:00,42.6,42.1,30.12,ENE,68,0.0,0.9,98,0.04,,OVC026,0.12,VWS V14.00,2013-01-28 22:21:00,
2013-01-28 14:22:00,42.6,42.1,30.12,ESE,112,0.0,0.9,98,0.04,,OVC026,0.12,VWS V14.00,2013-01-28 22:22:00,
2013-01-28 14:24:00,42.6,42.1,30.12,ENE,68,0.0,0.0,98,0.04,,OVC026,0.12,VWS V14.00,2013-01-28 22:24:00,
2013-01-28 14:25:00,42.6,42.1,30.12,ENE,68,0.0,0.0,98,0.04,,OVC026,0.12,VWS V14.00,2013-01-28 22:25:00,
2013-01-28 14:26:00,42.4,41.9,30.12,ENE,68,0.0,0.0,98,0.04,,OVC026,0.12,VWS V14.00,2013-01-28 22:26:00,
2013-01-28 14:27:00,42.4,41.9,30.12,East,90,1.1,1.1,98,0.04,,OVC026,0.12,VWS V14.00,2013-01-28 22:27:00,
2013-01-28 14:29:00,42.4,41.9,30.12,East,90,3.1,3.1,98,0.04,,OVC026,0.12,VWS V14.00,2013-01-28 22:29:00,
2013-01-28 14:30:00,42.4,41.9,30.12,ENE,68,0.0,3.1,98,0.04,,OVC026,0.12,VWS V14.00,2013-01-28 22:30:00,
2013-01-28 14:31:00,42.4,41.9,30.12,ENE,68,0.0,3.1,98,0.04,,OVC026,0.12,VWS V14.00,2013-01-28 22:31:00,
2013-01-28 14:32:00,42.4,41.9,30.12,ESE,112,0.9,3.1,98,0.04,,OVC025,0.12,VWS V14.00,2013-01-28 22:32:00,
2013-01-28 14:34:00,42.4,41.9,30.12,North,0,0.0,3.1,98,0.04,,OVC025,0.12,VWS V14.00,2013-01-28 22:34:00,
2013-01-28 14:35:00,42.6,42.1,30.12,East,90,4.9,4.9,98,0.04,,OVC025,0.12,VWS V14.00,2013-01-28 22:35:00,
2013-01-28 14:36:00,42.6,42.1,30.12,West,270,3.1,4.9,98,0.04,,OVC025,0.12,VWS V14.00,2013-01-28 22:36:00,
2013-01-28 14:37:00,42.6,42.1,30.12,WSW,248,0.0,4.9,98,0.00,,OVC025,0.12,VWS V14.00,2013-01-28 22:37:00,
2013-01-28 14:39:00,42.6,42.1,30.12,ESE,112,2.5,4.9,98,0.00,,OVC025,0.12,VWS V14.00,2013-01-28 22:39:00,
2013-01-28 14:40:00,42.4,41.9,30.12,ENE,68,0.0,4.9,98,0.00,,OVC025,0.12,VWS V14.00,2013-01-28 22:40:00,
2013-01-28 14:41:00,42.4,41.9,30.12,SSW,202,2.2,4.9,98,0.00,,OVC025,0.12,VWS V14.00,2013-01-28 22:41:00,
2013-01-28 14:42:00,42.6,42.1,30.12,SW,225,2.5,4.9,98,0.00,,OVC025,0.12,VWS V14.00,2013-01-28 22:42:00,
2013-01-28 14:44:00,42.6,42.1,30.12,WSW,248,0.0,4.9,98,0.00,,OVC025,0.12,VWS V14.00,2013-01-28 22:44:00,
2013-01-28 14:45:00,42.6,42.1,30.12,WSW,248,0.0,4.9,98,0.00,,OVC025,0.12,VWS V14.00,2013-01-28 22:45:00,
2013-01-28 14:46:00,42.6,42.1,30.12,East,90,0.0,4.9,98,0.04,,OVC025,0.16,VWS V14.00,2013-01-28 22:46:00,
2013-01-28 14:48:00,42.4,41.9,30.12,NW,315,0.9,4.9,98,0.04,,OVC019,0.16,VWS V14.00,2013-01-28 22:48:00,
2013-01-28 14:49:00,42.4,41.9,30.12,NNE,22,0.0,4.9,98,0.04,,OVC028,0.16,VWS V14.00,2013-01-28 22:49:00,
2013-01-28 14:50:00,42.4,41.9,30.12,NNE,22,0.0,4.9,98,0.04,,OVC028,0.16,VWS V14.00,2013-01-28 22:50:00,
2013-01-28 14:51:00,42.4,41.9,30.12,WSW,248,1.6,4.9,98,0.04,,OVC028,0.16,VWS V14.00,2013-01-28 22:51:00,
2013-01-28 14:53:00,42.4,41.9,30.12,WSW,248,2.0,2.5,98,0.04,,OVC028,0.16,VWS V14.00,2013-01-28 22:53:00,
2013-01-28 14:54:00,42.4,41.9,30.12,NNW,338,1.3,2.5,98,0.04,,OVC028,0.16,VWS V14.00,2013-01-28 22:54:00,
2013-01-28 14:55:00,42.4,41.9,30.12,SE,135,2.7,2.7,98,0.04,,OVC028,0.16,VWS V14.00,2013-01-28 22:55:00,
2013-01-28 14:56:00,42.4,41.9,30.12,West,270,2.9,2.9,98,0.04,,OVC019,0.16,VWS V14.00,2013-01-28 22:56:00,
2013-01-28 14:58:00,42.4,41.9,30.12,WNW,292,0.9,2.9,98,0.04,,OVC028,0.16,VWS V14.00,2013-01-28 22:58:00,
2013-01-28 14:59:00,42.4,41.9,30.12,WSW,248,0.0,2.9,98,0.04,,OVC028,0.16,VWS V14.00,2013-01-28 22:59:00,
2013-01-28 15:00:00,42.4,41.9,30.12,SSW,202,0.0,2.9,98,0.04,,OVC028,0.16,VWS V14.00,2013-01-28 23:00:00,
2013-01-28 15:01:00,42.4,41.9,30.12,WNW,292,0.0,2.9,98,0.04,,OVC028,0.16,VWS V14.00,2013-01-28 23:01:00,
2013-01-28 15:03:00,42.4,41.9,30.12,East,90,0.0,2.9,98,0.04,,OVC028,0.16,VWS V14.00,2013-01-28 23:03:00,
2013-01-28 15:04:00,42.4,41.9,30.12,SSW,202,0.9,2.9,98,0.04,,OVC019,0.16,VWS V14.00,2013-01-28 23:04:00,
2013-01-28 15:05:00,42.4,41.9,30.12,SSW,202,0.9,2.9,98,0.04,,OVC028,0.16,VWS V14.00,2013-01-28 23:05:00,
2013-01-28 15:06:00,42.4,41.9,30.12,SSW,202,0.9,2.9,98,0.04,,OVC028,0.16,VWS V14.00,2013-01-28 23:06:00,
2013-01-28 15:08:00,42.4,41.9,30.12,ENE,68,0.0,2.9,98,0.04,,OVC028,0.16,VWS V14.00,2013-01-28 23:08:00,
2013-01-28 15:10:00,42.4,41.9,30.12,South,180,1.1,2.9,98,0.04,,OVC028,0.16,VWS V14.00,2013-01-28 23:10:00,
2013-01-28 15:11:00,42.4,41.9,30.12,WNW,292,0.9,2.9,98,0.04,,OVC028,0.16,VWS V14.00,2013-01-28 23:11:00,
2013-01-28 15:13:00,42.4,41.9,30.12,SSE,158,0.0,2.9,98,0.04,,OVC028,0.16,VWS V14.00,2013-01-28 23:13:00,
2013-01-28 15:15:00,42.4,41.9,30.12,WNW,292,0.0,2.9,98,0.04,,OVC028,0.16,VWS V14.00,2013-01-28 23:15:00,
2013-01-28 15:16:00,42.4,41.9,30.12,NNE,22,0.0,2.7,98,0.08,,OVC019,0.20,VWS V14.00,2013-01-28 23:16:00,
2013-01-28 15:18:00,42.4,41.9,30.12,ESE,112,0.0,2.0,98,0.08,,OVC028,0.20,VWS V14.00,2013-01-28 23:18:00,
2013-01-28 15:20:00,42.3,41.7,30.12,ESE,112,0.0,2.0,98,0.08,,OVC028,0.20,VWS V14.00,2013-01-28 23:20:00,
2013-01-28 15:21:00,42.3,41.7,30.12,WNW,292,0.9,2.2,98,0.08,,OVC028,0.20,VWS V14.00,2013-01-28 23:21:00,
2013-01-28 15:23:00,42.3,41.7,30.12,SSE,158,1.3,2.2,98,0.08,,OVC028,0.20,VWS V14.00,2013-01-28 23:23:00,
2013-01-28 15:25:00,42.4,41.9,30.12,SE,135,0.9,2.2,98,0.08,,OVC028,0.20,VWS V14.00,2013-01-28 23:25:00,
2013-01-28 15:26:00,42.4,41.9,30.12,East,90,0.0,2.2,98,0.08,,OVC028,0.20,VWS V14.00,2013-01-28 23:26:00,
2013-01-28 15:28:00,42.4,41.9,30.12,NNE,22,0.0,2.2,98,0.08,,OVC028,0.20,VWS V14.00,2013-01-28 23:28:00,
2013-01-28 15:30:00,42.4,41.9,30.12,NNE,22,0.0,2.2,98,0.08,,OVC028,0.20,VWS V14.00,2013-01-28 23:30:00,
2013-01-28 15:31:00,42.3,41.7,30.12,SSW,202,0.0,1.3,98,0.08,,OVC043,0.20,VWS V14.00,2013-01-28 23:31:00,
2013-01-28 15:33:00,42.3,41.7,30.12,East,90,0.0,0.0,98,0.08,,OVC043,0.20,VWS V14.00,2013-01-28 23:33:00,
2013-01-28 15:35:00,42.3,41.7,30.12,ESE,112,1.1,1.1,98,0.08,,OVC043,0.20,VWS V14.00,2013-01-28 23:35:00,
2013-01-28 15:36:00,42.3,41.7,30.12,SW,225,0.0,1.1,98,0.08,,OVC043,0.20,VWS V14.00,2013-01-28 23:36:00,
2013-01-28 15:39:00,42.3,41.7,30.12,SSW,202,0.0,1.6,98,0.08,,OVC043,0.20,VWS V14.00,2013-01-28 23:39:00,
2013-01-28 15:40:00,42.3,41.7,30.12,East,90,0.0,1.6,98,0.08,,OVC043,0.20,VWS V14.00,2013-01-28 23:40:00,
2013-01-28 15:41:00,42.3,41.7,30.12,East,90,0.0,1.6,98,0.08,,OVC043,0.20,VWS V14.00,2013-01-28 23:41:00,
2013-01-28 15:44:00,42.3,41.7,30.12,ESE,112,0.9,1.6,98,0.08,,OVC043,0.20,VWS V14.00,2013-01-28 23:44:00,
2013-01-28 15:45:00,42.3,41.7,30.12,NNW,338,0.0,1.6,98,0.08,,OVC043,0.20,VWS V14.00,2013-01-28 23:45:00,
2013-01-28 15:46:00,42.3,41.7,30.12,WSW,248,0.0,1.6,98,0.04,,OVC043,0.20,VWS V14.00,2013-01-28 23:46:00,
2013-01-28 15:49:00,42.3,41.7,30.12,WNW,292,1.1,1.1,98,0.04,,BKN030,0.20,VWS V14.00,2013-01-28 23:49:00,
2013-01-28 15:50:00,42.3,41.7,30.12,WNW,292,1.1,1.1,98,0.04,,BKN030,0.20,VWS V14.00,2013-01-28 23:50:00,
2013-01-28 15:51:00,42.3,41.7,30.12,ENE,68,0.0,1.1,98,0.04,,BKN030,0.20,VWS V14.00,2013-01-28 23:51:00,
2013-01-28 15:54:00,42.3,41.7,30.12,ESE,112,1.3,2.0,98,0.04,,BKN030,0.20,VWS V14.00,2013-01-28 23:54:00,
2013-01-28 15:55:00,42.3,41.7,30.12,WSW,248,1.6,2.0,98,0.04,,BKN030,0.20,VWS V14.00,2013-01-28 23:55:00,
2013-01-28 15:56:00,42.3,41.7,30.12,NE,45,0.0,2.0,98,0.04,,OVC036,0.20,VWS V14.00,2013-01-28 23:56:00,
2013-01-28 15:59:00,42.3,41.7,30.12,SSE,158,0.0,2.0,98,0.04,,BKN030,0.20,VWS V14.00,2013-01-28 23:59:00,
2013-01-28 16:00:00,42.3,41.7,30.12,WNW,292,0.0,2.0,98,0.04,,BKN030,0.20,VWS V14.00,2013-01-29 00:00:00,
2013-01-28 16:01:00,42.3,41.7,30.12,East,90,0.9,2.0,98,0.08,,BKN030,0.24,VWS V14.00,2013-01-29 00:01:00,
2013-01-28 16:04:00,42.3,41.7,30.12,East,90,0.0,0.9,98,0.08,,BKN030,0.24,VWS V14.00,2013-01-29 00:04:00,
2013-01-28 16:05:00,42.3,41.7,30.12,WSW,248,0.9,1.6,98,0.08,,BKN030,0.24,VWS V14.00,2013-01-29 00:05:00,
2013-01-28 16:06:00,42.3,41.7,30.12,WNW,292,0.0,1.6,98,0.08,,BKN030,0.24,VWS V14.00,2013-01-29 00:06:00,
2013-01-28 16:09:00,42.1,41.6,30.12,WSW,248,1.6,2.2,98,0.08,,BKN030,0.24,VWS V14.00,2013-01-29 00:09:00,
2013-01-28 16:10:00,42.1,41.6,30.12,SSW,202,0.0,2.2,98,0.08,,BKN030,0.24,VWS V14.00,2013-01-29 00:10:00,
2013-01-28 16:12:00,42.1,41.6,30.12,NW,315,0.0,2.2,98,0.08,,BKN030,0.24,VWS V14.00,2013-01-29 00:12:00,
2013-01-28 16:14:00,42.1,41.6,30.12,East,90,0.0,2.2,98,0.08,,BKN030,0.24,VWS V14.00,2013-01-29 00:14:00,
2013-01-28 16:15:00,42.1,41.6,30.12,ESE,112,1.1,2.2,98,0.08,,BKN030,0.24,VWS V14.00,2013-01-29 00:15:00,
2013-01-28 16:17:00,42.1,41.6,30.12,ESE,112,1.1,1.6,98,0.04,,OVC037,0.24,VWS V14.00,2013-01-29 00:17:00,
2013-01-28 16:19:00,42.1,41.6,30.12,SSW,202,1.6,1.6,98,0.04,,OVC037,0.24,VWS V14.00,2013-01-29 00:19:00,
2013-01-28 16:20:00,42.1,41.6,30.12,East,90,0.0,1.6,98,0.04,,OVC037,0.24,VWS V14.00,2013-01-29 00:20:00,
2013-01-28 16:22:00,42.1,41.6,30.12,East,90,0.0,1.6,98,0.04,,OVC037,0.24,VWS V14.00,2013-01-29 00:22:00,
2013-01-28 16:24:00,42.1,41.6,30.12,East,90,0.0,1.6,98,0.04,,OVC037,0.24,VWS V14.00,2013-01-29 00:24:00,
2013-01-28 16:25:00,42.1,41.6,30.12,East,90,0.0,0.0,98,0.04,,OVC037,0.24,VWS V14.00,2013-01-29 00:25:00,
2013-01-28 16:27:00,42.1,41.6,30.12,East,90,0.0,0.0,98,0.04,,OVC037,0.24,VWS V14.00,2013-01-29 00:27:00,
2013-01-28 16:29:00,42.3,41.7,30.12,ESE,112,0.0,0.0,98,0.09,,OVC037,0.29,VWS V14.00,2013-01-29 00:29:00,
2013-01-28 16:30:00,42.3,41.7,30.12,ESE,112,0.0,0.0,98,0.09,,OVC037,0.29,VWS V14.00,2013-01-29 00:30:00,
2013-01-28 16:32:00,42.3,41.7,30.12,ESE,112,0.0,0.0,98,0.09,,OVC037,0.29,VWS V14.00,2013-01-29 00:32:00,
2013-01-28 16:34:00,42.3,41.7,30.12,ESE,112,0.0,0.0,98,0.09,,OVC037,0.29,VWS V14.00,2013-01-29 00:34:00,
2013-01-28 16:35:00,42.1,41.6,30.12,ESE,112,0.0,0.0,98,0.09,,OVC037,0.29,VWS V14.00,2013-01-29 00:35:00,
2013-01-28 16:37:00,42.1,41.6,30.12,ESE,112,0.0,0.0,98,0.09,,OVC037,0.29,VWS V14.00,2013-01-29 00:37:00,
2013-01-28 16:39:00,42.1,41.6,30.12,ENE,68,0.0,0.0,98,0.09,,OVC037,0.29,VWS V14.00,2013-01-29 00:39:00,
2013-01-28 16:40:00,42.1,41.6,30.12,ENE,68,0.0,0.0,98,0.09,,OVC037,0.29,VWS V14.00,2013-01-29 00:40:00,
2013-01-28 16:42:00,42.1,41.6,30.12,South,180,0.0,0.0,98,0.09,,OVC037,0.29,VWS V14.00,2013-01-29 00:42:00,
2013-01-28 16:44:00,42.1,41.6,30.12,SE,135,0.0,0.0,98,0.09,,OVC037,0.29,VWS V14.00,2013-01-29 00:44:00,
2013-01-28 16:45:00,42.1,41.6,30.12,SW,225,0.9,0.9,98,0.09,,OVC037,0.29,VWS V14.00,2013-01-29 00:45:00,
2013-01-28 16:47:00,42.1,41.6,30.12,WNW,292,0.0,0.9,98,0.09,,OVC037,0.29,VWS V14.00,2013-01-29 00:47:00,
2013-01-28 16:49:00,42.1,41.6,30.12,WSW,248,0.0,0.9,98,0.09,,OVC026,0.29,VWS V14.00,2013-01-29 00:49:00,
2013-01-28 16:50:00,42.1,41.6,30.12,WSW,248,0.0,0.9,98,0.09,,OVC026,0.29,VWS V14.00,2013-01-29 00:50:00,
2013-01-28 16:51:00,42.1,41.6,30.12,WSW,248,0.0,0.9,98,0.09,,OVC026,0.29,VWS V14.00,2013-01-29 00:51:00,
2013-01-28 16:52:00,42.1,41.6,30.12,WSW,248,3.1,3.1,98,0.09,,OVC026,0.29,VWS V14.00,2013-01-29 00:52:00,
2013-01-28 16:54:00,42.1,41.6,30.12,South,180,0.0,3.1,98,0.09,,OVC026,0.29,VWS V14.00,2013-01-29 00:54:00,
2013-01-28 16:55:00,42.1,41.6,30.12,South,180,0.0,3.1,98,0.09,,OVC026,0.29,VWS V14.00,2013-01-29 00:55:00,
2013-01-28 16:56:00,42.1,41.6,30.12,ESE,112,0.9,3.1,98,0.09,,OVC026,0.29,VWS V14.00,2013-01-29 00:56:00,
2013-01-28 16:57:00,42.1,41.6,30.12,WSW,248,1.6,3.1,98,0.09,,OVC037,0.29,VWS V14.00,2013-01-29 00:57:00,
2013-01-28 16:59:00,42.1,41.6,30.12,NE,45,1.6,3.1,98,0.09,,OVC026,0.29,VWS V14.00,2013-01-29 00:59:00,
2013-01-28 17:00:00,42.1,41.6,30.12,WNW,292,1.3,3.1,98,0.09,,OVC026,0.29,VWS V14.00,2013-01-29 01:00:00,
2013-01-28 17:01:00,42.1,41.6,30.12,SSW,202,2.5,3.1,98,0.09,,OVC026,0.29,VWS V14.00,2013-01-29 01:01:00,
2013-01-28 17:02:00,42.1,41.6,30.12,SE,135,2.2,3.1,98,0.05,,OVC026,0.29,VWS V14.00,2013-01-29 01:02:00,
2013-01-28 17:05:00,42.1,41.6,30.12,WNW,292,3.1,3.1,98,0.05,,OVC037,0.29,VWS V14.00,2013-01-29 01:05:00,
2013-01-28 17:06:00,42.1,41.6,30.12,West,270,2.9,3.1,98,0.05,,OVC026,0.29,VWS V14.00,2013-01-29 01:06:00,
2013-01-28 17:07:00,42.3,41.7,30.12,West,270,2.9,3.1,98,0.05,,OVC026,0.29,VWS V14.00,2013-01-29 01:07:00,
2013-01-28 17:10:00,42.1,41.6,30.12,NNE,22,0.9,3.1,98,0.05,,OVC026,0.29,VWS V14.00,2013-01-29 01:10:00,
2013-01-28 17:11:00,42.1,41.6,30.12,ENE,68,0.0,3.1,98,0.05,,OVC026,0.29,VWS V14.00,2013-01-29 01:11:00,
2013-01-28 17:12:00,42.1,41.6,30.12,WNW,292,0.0,3.1,98,0.05,,OVC026,0.29,VWS V14.00,2013-01-29 01:12:00,
2013-01-28 17:15:00,42.1,41.6,30.12,West,270,1.1,3.1,98,0.05,,OVC026,0.29,VWS V14.00,2013-01-29 01:15:00,
2013-01-28 17:16:00,42.1,41.6,30.12,WSW,248,3.4,3.4,98,0.05,,OVC026,0.29,VWS V14.00,2013-01-29 01:16:00,
2013-01-28 17:17:00,42.1,41.6,30.12,WSW,248,3.4,3.4,98,0.05,,OVC026,0.29,VWS V14.00,2013-01-29 01:17:00,
2013-01-28 17:20:00,42.3,41.7,30.12,WNW,292,3.1,3.4,98,0.09,,OVC026,0.33,VWS V14.00,2013-01-29 01:20:00,
2013-01-28 17:21:00,42.3,41.7,30.12,ENE,68,1.3,3.4,98,0.09,,OVC026,0.33,VWS V14.00,2013-01-29 01:21:00,
2013-01-28 17:22:00,42.3,41.7,30.12,ENE,68,1.3,3.4,98,0.09,,OVC026,0.33,VWS V14.00,2013-01-29 01:22:00,
2013-01-28 17:25:00,42.3,41.7,30.12,WSW,248,3.4,3.4,98,0.09,,OVC026,0.33,VWS V14.00,2013-01-29 01:25:00,
2013-01-28 17:26:00,42.3,41.7,30.12,WSW,248,1.3,3.4,98,0.09,,OVC026,0.33,VWS V14.00,2013-01-29 01:26:00,
2013-01-28 17:27:00,42.3,41.7,30.12,West,270,2.9,3.4,98,0.09,,OVC026,0.33,VWS V14.00,2013-01-29 01:27:00,
2013-01-28 17:30:00,42.3,41.7,30.12,East,90,0.9,3.4,98,0.04,,OVC026,0.33,VWS V14.00,2013-01-29 01:30:00,
2013-01-28 17:31:00,42.3,41.7,30.12,SSW,202,1.3,3.4,98,0.04,,OVC026,0.33,VWS V14.00,2013-01-29 01:31:00,
2013-01-28 17:32:00,42.1,41.6,30.12,South,180,0.9,3.4,98,0.04,,OVC022,0.33,VWS V14.00,2013-01-29 01:32:00,
2013-01-28 17:35:00,42.1,41.6,30.12,West,270,3.4,3.4,98,0.04,,OVC022,0.33,VWS V14.00,2013-01-29 01:35:00,
2013-01-28 17:36:00,42.1,41.6,30.12,SW,225,0.0,3.4,98,0.04,,OVC022,0.33,VWS V14.00,2013-01-29 01:36:00,
2013-01-28 17:37:00,42.1,41.6,30.12,WSW,248,1.6,3.4,98,0.04,,OVC022,0.33,VWS V14.00,2013-01-29 01:37:00,
2013-01-28 17:40:00,42.3,41.7,30.12,West,270,6.0,6.0,98,0.04,,OVC022,0.33,VWS V14.00,2013-01-29 01:40:00,
2013-01-28 17:41:00,42.3,41.7,30.12,West,270,6.0,6.0,98,0.04,,OVC022,0.33,VWS V14.00,2013-01-29 01:41:00,
2013-01-28 17:42:00,42.3,41.7,30.12,WSW,248,1.6,6.0,98,0.04,,OVC022,0.33,VWS V14.00,2013-01-29 01:42:00,
2013-01-28 17:45:00,42.3,41.7,30.12,WNW,292,1.6,6.0,98,0.04,,OVC022,0.33,VWS V14.00,2013-01-29 01:45:00,
2013-01-28 17:46:00,42.3,41.7,30.12,WSW,248,2.2,6.0,98,0.04,,OVC022,0.33,VWS V14.00,2013-01-29 01:46:00,
2013-01-28 17:47:00,42.3,41.7,30.12,WSW,248,0.0,6.0,98,0.04,,OVC022,0.33,VWS V14.00,2013-01-29 01:47:00,
2013-01-28 17:50:00,42.3,41.7,30.12,ENE,68,1.1,6.0,98,0.04,,OVC024,0.33,VWS V14.00,2013-01-29 01:50:00,
2013-01-28 17:51:00,42.3,41.7,30.12,ENE,68,1.1,6.0,98,0.04,,OVC024,0.33,VWS V14.00,2013-01-29 01:51:00,
2013-01-28 17:52:00,42.3,41.7,30.12,WNW,292,0.9,6.0,98,0.04,,OVC024,0.33,VWS V14.00,2013-01-29 01:52:00,
2013-01-28 17:55:00,42.3,41.7,30.12,West,270,0.0,6.0,98,0.04,,OVC024,0.33,VWS V14.00,2013-01-29 01:55:00,
2013-01-28 17:56:00,42.3,41.7,30.12,West,270,0.0,6.0,98,0.04,,OVC024,0.33,VWS V14.00,2013-01-29 01:56:00,
2013-01-28 17:57:00,42.3,41.7,30.12,NNW,338,0.0,6.0,98,0.04,,OVC024,0.33,VWS V14.00,2013-01-29 01:57:00,
2013-01-28 18:00:00,42.1,41.6,30.12,WNW,292,0.0,3.4,98,0.04,,OVC024,0.33,VWS V14.00,2013-01-29 02:00:00,
2013-01-28 18:01:00,42.1,41.6,30.12,WNW,292,0.9,3.4,98,0.04,,OVC024,0.33,VWS V14.00,2013-01-29 02:01:00,
2013-01-28 18:02:00,42.1,41.6,30.12,WNW,292,0.0,3.4,98,0.04,,OVC024,0.33,VWS V14.00,2013-01-29 02:02:00,
2013-01-28 18:05:00,42.3,41.7,30.12,WNW,292,0.0,3.1,98,0.04,,OVC024,0.33,VWS V14.00,2013-01-29 02:05:00,
2013-01-28 18:06:00,42.3,41.7,30.12,WNW,292,0.0,3.1,98,0.04,,OVC024,0.33,VWS V14.00,2013-01-29 02:06:00,
2013-01-28 18:07:00,42.3,41.7,30.12,WSW,248,2.2,3.1,98,0.08,,OVC024,0.37,VWS V14.00,2013-01-29 02:07:00,
2013-01-28 18:10:00,42.1,41.6,30.12,West,270,0.0,2.2,98,0.08,,OVC024,0.37,VWS V14.00,2013-01-29 02:10:00,
2013-01-28 18:11:00,42.1,41.6,30.12,West,270,0.0,2.2,98,0.08,,OVC024,0.37,VWS V14.00,2013-01-29 02:11:00,
2013-01-28 18:12:00,42.1,41.6,30.12,ESE,112,0.0,2.2,98,0.08,,OVC024,0.37,VWS V14.00,2013-01-29 02:12:00,
2013-01-28 18:15:00,42.3,41.7,30.12,ENE,68,0.0,2.2,98,0.08,,OVC024,0.37,VWS V14.00,2013-01-29 02:15:00,
2013-01-28 18:16:00,42.3,41.7,30.12,NW,315,0.0,2.2,98,0.08,,OVC024,0.37,VWS V14.00,2013-01-29 02:16:00,
2013-01-28 18:17:00,42.3,41.7,30.12,SSW,202,0.0,2.2,98,0.08,,OVC024,0.37,VWS V14.00,2013-01-29 02:17:00,
2013-01-28 18:20:00,42.1,41.6,30.12,ESE,112,0.9,2.2,98,0.04,,OVC024,0.37,VWS V14.00,2013-01-29 02:20:00,
2013-01-28 18:21:00,42.1,41.6,30.12,ESE,112,0.9,2.2,98,0.04,,OVC024,0.37,VWS V14.00,2013-01-29 02:21:00,
2013-01-28 18:22:00,42.3,41.7,30.12,ESE,112,0.0,2.2,98,0.04,,OVC024,0.37,VWS V14.00,2013-01-29 02:22:00,
2013-01-28 18:25:00,42.3,41.7,30.12,SSE,158,0.0,2.0,98,0.04,,OVC024,0.37,VWS V14.00,2013-01-29 02:25:00,
2013-01-28 18:26:00,42.3,41.7,30.12,SSE,158,0.0,2.0,98,0.04,,OVC024,0.37,VWS V14.00,2013-01-29 02:26:00,
2013-01-28 18:27:00,42.3,41.7,30.12,ENE,68,1.3,2.0,98,0.04,,OVC024,0.37,VWS V14.00,2013-01-29 02:27:00,
2013-01-28 18:31:00,42.1,41.6,30.12,WSW,248,1.1,1.6,98,0.04,,OVC024,0.37,VWS V14.00,2013-01-29 02:31:00,
2013-01-28 18:32:00,42.1,41.6,30.12,WNW,292,3.6,3.6,98,0.04,,OVC025,0.37,VWS V14.00,2013-01-29 02:32:00,
2013-01-28 18:36:00,42.3,41.7,30.12,WNW,292,1.6,3.6,98,0.04,,OVC025,0.37,VWS V14.00,2013-01-29 02:36:00,
2013-01-28 18:38:00,42.1,41.6,30.12,ESE,112,0.9,3.6,98,0.04,,OVC025,0.37,VWS V14.00,2013-01-29 02:38:00,
2013-01-28 18:41:00,42.1,41.6,30.12,WSW,248,2.0,3.6,98,0.04,,OVC025,0.37,VWS V14.00,2013-01-29 02:41:00,
2013-01-28 18:43:00,42.1,41.6,30.12,WSW,248,1.6,3.6,98,0.04,,OVC025,0.37,VWS V14.00,2013-01-29 02:43:00,
2013-01-28 18:46:00,42.1,41.6,30.12,WNW,292,1.1,3.6,98,0.04,,OVC025,0.37,VWS V14.00,2013-01-29 02:46:00,
2013-01-28 18:48:00,42.1,41.6,30.12,WNW,292,0.0,3.6,98,0.04,,OVC023,0.37,VWS V14.00,2013-01-29 02:48:00,
2013-01-28 18:51:00,42.1,41.6,30.12,WSW,248,2.0,3.4,98,0.04,,OVC023,0.37,VWS V14.00,2013-01-29 02:51:00,
2013-01-28 18:53:00,42.1,41.6,30.12,WSW,248,1.1,3.4,98,0.04,,OVC023,0.37,VWS V14.00,2013-01-29 02:53:00,
2013-01-28 18:56:00,42.1,41.6,30.12,WSW,248,0.0,6.9,98,0.04,,OVC022,0.37,VWS V14.00,2013-01-29 02:56:00,
2013-01-28 18:58:00,42.1,41.6,30.12,WNW,292,0.0,6.9,98,0.04,,OVC023,0.37,VWS V14.00,2013-01-29 02:58:00,
2013-01-28 19:01:00,42.1,41.6,30.12,WNW,292,0.9,6.9,98,0.04,,OVC023,0.37,VWS V14.00,2013-01-29 03:01:00,
2013-01-28 19:03:00,42.1,41.6,30.12,East,90,0.0,6.9,98,0.08,,OVC023,0.41,VWS V14.00,2013-01-29 03:03:00,
2013-01-28 19:06:00,42.1,41.6,30.12,SSE,158,1.6,6.9,98,0.08,,OVC023,0.41,VWS V14.00,2013-01-29 03:06:00,
2013-01-28 19:08:00,42.1,41.6,30.12,WNW,292,0.9,6.9,98,0.04,,OVC023,0.41,VWS V14.00,2013-01-29 03:08:00,
2013-01-28 19:11:00,42.1,41.6,30.12,WSW,248,0.0,6.9,98,0.04,,OVC023,0.41,VWS V14.00,2013-01-29 03:11:00,
2013-01-28 19:13:00,42.1,41.6,30.12,NNE,22,3.4,4.7,98,0.04,,OVC023,0.41,VWS V14.00,2013-01-29 03:13:00,
2013-01-28 19:16:00,42.3,41.7,30.12,SE,135,2.0,4.7,98,0.04,,OVC022,0.41,VWS V14.00,2013-01-29 03:16:00,
2013-01-28 19:18:00,42.1,41.6,30.12,East,90,2.0,4.7,98,0.04,,OVC023,0.41,VWS V14.00,2013-01-29 03:18:00,
2013-01-28 19:21:00,42.1,41.6,30.12,WSW,248,2.9,3.8,98,0.04,,OVC023,0.41,VWS V14.00,2013-01-29 03:21:00,
2013-01-28 19:22:00,42.1,41.6,30.12,SSW,202,1.1,3.8,98,0.04,,OVC023,0.41,VWS V14.00,2013-01-29 03:22:00,
2013-01-28 19:23:00,42.1,41.6,30.15,SSW,202,2.7,3.8,98,0.04,,OVC023,0.41,VWS V14.00,2013-01-29 03:23:00,
2013-01-28 19:26:00,42.1,41.6,30.15,WSW,248,1.3,3.8,98,0.04,,OVC023,0.41,VWS V14.00,2013-01-29 03:26:00,
2013-01-28 19:27:00,42.1,41.6,30.15,WSW,248,1.3,3.8,98,0.04,,OVC023,0.41,VWS V14.00,2013-01-29 03:27:00,
2013-01-28 19:28:00,42.1,41.6,30.15,WSW,248,2.9,3.8,98,0.08,,OVC023,0.45,VWS V14.00,2013-01-29 03:28:00,
2013-01-28 19:31:00,41.9,41.4,30.15,West,270,0.0,2.9,98,0.08,,OVC027,0.45,VWS V14.00,2013-01-29 03:31:00,
2013-01-28 19:32:00,41.9,41.4,30.15,SW,225,1.6,2.9,98,0.08,,OVC027,0.45,VWS V14.00,2013-01-29 03:32:00,
2013-01-28 19:33:00,41.9,41.4,30.15,WNW,292,2.0,2.9,98,0.08,,OVC022,0.45,VWS V14.00,2013-01-29 03:33:00,
2013-01-28 19:36:00,42.1,41.6,30.15,WSW,248,0.9,3.6,98,0.08,,OVC022,0.45,VWS V14.00,2013-01-29 03:36:00,
2013-01-28 19:37:00,42.1,41.6,30.15,WSW,248,0.9,3.6,98,0.08,,OVC022,0.45,VWS V14.00,2013-01-29 03:37:00,
2013-01-28 19:38:00,42.1,41.6,30.15,WSW,248,0.9,3.6,98,0.08,,OVC022,0.45,VWS V14.00,2013-01-29 03:38:00,
2013-01-28 19:41:00,42.1,41.6,30.15,ENE,68,1.6,3.6,98,0.08,,OVC022,0.45,VWS V14.00,2013-01-29 03:41:00,
2013-01-28 19:42:00,42.1,41.6,30.15,ENE,68,1.6,3.6,98,0.08,,OVC022,0.45,VWS V14.00,2013-01-29 03:42:00,
2013-01-28 19:43:00,42.1,41.6,30.15,NE,45,1.1,3.6,98,0.08,,OVC022,0.45,VWS V14.00,2013-01-29 03:43:00,
2013-01-28 19:46:00,41.9,41.4,30.15,NNW,338,0.0,3.6,98,0.08,,OVC022,0.45,VWS V14.00,2013-01-29 03:46:00,
2013-01-28 19:47:00,41.9,41.4,30.15,SW,225,0.0,3.6,98,0.08,,OVC022,0.45,VWS V14.00,2013-01-29 03:47:00,
2013-01-28 19:48:00,41.9,41.4,30.15,WNW,292,0.0,3.6,98,0.08,,OVC022,0.45,VWS V14.00,2013-01-29 03:48:00,
2013-01-28 19:51:00,41.9,41.4,30.15,NE,45,0.0,3.6,98,0.08,,OVC022,0.45,VWS V14.00,2013-01-29 03:51:00,
2013-01-28 19:52:00,41.9,41.4,30.15,NE,45,0.0,3.6,98,0.08,,OVC022,0.45,VWS V14.00,2013-01-29 03:52:00,
2013-01-28 19:54:00,41.9,41.4,30.15,NNE,22,0.0,3.6,98,0.08,,OVC022,0.45,VWS V14.00,2013-01-29 03:54:00,
2013-01-28 19:56:00,41.9,41.4,30.15,SSW,202,0.9,3.6,98,0.08,,OVC027,0.45,VWS V14.00,2013-01-29 03:56:00,
2013-01-28 19:57:00,41.9,41.4,30.15,SSW,202,0.9,3.6,98,0.08,,OVC027,0.45,VWS V14.00,2013-01-29 03:57:00,
2013-01-28 19:59:00,41.9,41.4,30.15,SE,135,0.9,3.6,98,0.08,,OVC022,0.45,VWS V14.00,2013-01-29 03:59:00,
2013-01-28 20:01:00,41.9,41.4,30.15,SSW,202,1.6,3.6,98,0.08,,OVC022,0.45,VWS V14.00,2013-01-29 04:01:00,
2013-01-28 20:02:00,41.9,41.4,30.15,ESE,112,2.5,3.6,98,0.08,,OVC022,0.45,VWS V14.00,2013-01-29 04:02:00,
2013-01-28 20:04:00,42.1,41.6,30.15,SSW,202,1.1,3.8,98,0.04,,OVC022,0.45,VWS V14.00,2013-01-29 04:04:00,
2013-01-28 20:06:00,41.9,41.4,30.15,NNW,338,0.0,3.8,98,0.04,,OVC022,0.45,VWS V14.00,2013-01-29 04:06:00,
2013-01-28 20:07:00,41.9,41.4,30.15,NNW,338,0.0,3.8,98,0.04,,OVC022,0.45,VWS V14.00,2013-01-29 04:07:00,
2013-01-28 20:09:00,41.9,41.4,30.15,South,180,1.3,3.8,98,0.04,,OVC022,0.45,VWS V14.00,2013-01-29 04:09:00,
2013-01-28 20:12:00,41.9,41.4,30.12,ENE,68,0.0,3.8,98,0.04,,OVC022,0.45,VWS V14.00,2013-01-29 04:12:00,
2013-01-28 20:14:00,41.9,41.4,30.12,East,90,0.0,3.8,98,0.04,,OVC022,0.45,VWS V14.00,2013-01-29 04:14:00,
2013-01-28 20:17:00,41.7,41.2,30.12,East,90,0.0,3.8,98,0.04,,OVC022,0.45,VWS V14.00,2013-01-29 04:17:00,
2013-01-28 20:19:00,41.7,41.2,30.12,ESE,112,0.0,3.8,98,0.04,,OVC022,0.45,VWS V14.00,2013-01-29 04:19:00,
2013-01-28 20:22:00,41.9,41.4,30.12,WNW,292,1.3,3.8,98,0.04,,OVC022,0.45,VWS V14.00,2013-01-29 04:22:00,
2013-01-28 20:24:00,41.9,41.4,30.12,SSW,202,0.0,2.0,98,0.04,,OVC022,0.45,VWS V14.00,2013-01-29 04:24:00,
2013-01-28 20:27:00,41.9,41.4,30.12,WNW,292,0.0,1.3,98,0.04,,OVC022,0.45,VWS V14.00,2013-01-29 04:27:00,
2013-01-28 20:29:00,41.7,41.2,30.12,WSW,248,0.0,1.3,98,0.05,,OVC022,0.50,VWS V14.00,2013-01-29 04:29:00,
2013-01-28 20:32:00,41.9,41.4,30.12,WSW,248,0.0,1.3,98,0.05,,OVC030,0.50,VWS V14.00,2013-01-29 04:32:00,
2013-01-28 20:33:00,41.9,41.4,30.12,SSW,202,0.0,1.3,98,0.05,,OVC030,0.50,VWS V14.00,2013-01-29 04:33:00,
2013-01-28 20:34:00,41.9,41.4,30.12,SSE,158,0.0,1.1,98,0.05,,OVC030,0.50,VWS V14.00,2013-01-29 04:34:00,
2013-01-28 20:37:00,41.7,41.2,30.12,SSE,158,0.0,0.0,98,0.05,,OVC030,0.50,VWS V14.00,2013-01-29 04:37:00,
2013-01-28 20:38:00,41.7,41.2,30.12,ESE,112,0.0,0.0,98,0.05,,OVC030,0.50,VWS V14.00,2013-01-29 04:38:00,
2013-01-28 20:39:00,41.7,41.2,30.15,NNE,22,0.0,0.9,98,0.05,,OVC030,0.50,VWS V14.00,2013-01-29 04:39:00,
2013-01-28 20:42:00,41.7,41.2,30.15,SSW,202,1.3,1.3,98,0.05,,OVC030,0.50,VWS V14.00,2013-01-29 04:42:00,
2013-01-28 20:43:00,41.7,41.2,30.15,SE,135,3.6,3.6,98,0.05,,OVC030,0.50,VWS V14.00,2013-01-29 04:43:00,
2013-01-28 20:44:00,41.7,41.2,30.15,SE,135,3.6,3.6,98,0.05,,OVC030,0.50,VWS V14.00,2013-01-29 04:44:00,
2013-01-28 20:47:00,41.7,41.2,30.15,NNW,338,0.0,3.6,98,0.05,,OVC030,0.50,VWS V14.00,2013-01-29 04:47:00,
2013-01-28 20:48:00,41.7,41.2,30.15,South,180,0.0,3.6,98,0.05,,OVC030,0.50,VWS V14.00,2013-01-29 04:48:00,
2013-01-28 20:49:00,41.7,41.2,30.15,ENE,68,0.9,3.6,98,0.05,,OVC026,0.50,VWS V14.00,2013-01-29 04:49:00,
2013-01-28 20:52:00,41.7,41.2,30.15,ESE,112,0.0,3.6,98,0.05,,OVC026,0.50,VWS V14.00,2013-01-29 04:52:00,
2013-01-28 20:53:00,41.7,41.2,30.15,ESE,112,0.0,3.6,98,0.05,,OVC026,0.50,VWS V14.00,2013-01-29 04:53:00,
2013-01-28 20:54:00,41.7,41.2,30.15,East,90,1.1,3.6,98,0.05,,OVC026,0.50,VWS V14.00,2013-01-29 04:54:00,
2013-01-28 20:57:00,41.9,41.4,30.15,WNW,292,1.3,3.6,98,0.08,,OVC026,0.53,VWS V14.00,2013-01-29 04:57:00,
2013-01-28 20:58:00,41.9,41.4,30.15,WNW,292,1.3,1.3,98,0.08,,OVC026,0.53,VWS V14.00,2013-01-29 04:58:00,
2013-01-28 20:59:00,41.9,41.4,30.15,ESE,112,0.0,1.3,98,0.08,,OVC026,0.53,VWS V14.00,2013-01-29 04:59:00,
2013-01-28 21:00:00,41.9,41.4,30.15,ESE,112,4.0,4.0,98,0.08,,OVC026,0.53,VWS V14.00,2013-01-29 05:00:00,
2013-01-28 21:01:00,41.9,41.4,30.15,ESE,112,2.0,4.0,98,0.08,,OVC026,0.53,VWS V14.00,2013-01-29 05:01:00,
2013-01-28 21:03:00,41.9,41.4,30.15,WSW,248,1.6,4.0,98,0.08,,OVC026,0.53,VWS V14.00,2013-01-29 05:03:00,
2013-01-28 21:05:00,41.9,41.4,30.15,East,90,1.6,4.0,98,0.08,,OVC026,0.53,VWS V14.00,2013-01-29 05:05:00,
2013-01-28 21:06:00,41.9,41.4,30.15,ESE,112,1.3,4.0,98,0.08,,OVC026,0.53,VWS V14.00,2013-01-29 05:06:00,
2013-01-28 21:07:00,41.9,41.4,30.15,ESE,112,1.3,4.0,98,0.08,,OVC026,0.53,VWS V14.00,2013-01-29 05:07:00,
2013-01-28 21:08:00,41.9,41.4,30.15,ESE,112,1.3,1.6,98,0.08,,OVC026,0.53,VWS V14.00,2013-01-29 05:08:00,
2013-01-28 21:10:00,41.9,41.4,30.15,WNW,292,3.8,3.8,98,0.08,,OVC026,0.53,VWS V14.00,2013-01-29 05:10:00,
2013-01-28 21:11:00,41.9,41.4,30.15,WNW,292,3.8,3.8,98,0.08,,OVC026,0.53,VWS V14.00,2013-01-29 05:11:00,
2013-01-28 21:12:00,41.9,41.4,30.15,West,270,2.0,3.8,98,0.08,,OVC026,0.53,VWS V14.00,2013-01-29 05:12:00,
2013-01-28 21:13:00,41.9,41.4,30.15,SSW,202,1.3,3.8,98,0.08,,OVC026,0.53,VWS V14.00,2013-01-29 05:13:00,
2013-01-28 21:15:00,41.9,41.4,30.15,SSW,202,0.9,3.8,98,0.08,,OVC026,0.53,VWS V14.00,2013-01-29 05:15:00,
2013-01-28 21:16:00,41.9,41.4,30.15,East,90,0.0,3.8,98,0.08,,OVC030,0.53,VWS V14.00,2013-01-29 05:16:00,
2013-01-28 21:17:00,41.9,41.4,30.15,East,90,0.0,3.8,98,0.08,,OVC030,0.53,VWS V14.00,2013-01-29 05:17:00,
2013-01-28 21:18:00,41.9,41.4,30.15,NE,45,1.3,3.8,98,0.08,,OVC026,0.53,VWS V14.00,2013-01-29 05:18:00,
2013-01-28 21:20:00,41.9,41.4,30.15,WNW,292,1.1,3.8,98,0.08,,OVC026,0.53,VWS V14.00,2013-01-29 05:20:00,
2013-01-28 21:21:00,41.9,41.4,30.15,West,270,0.9,3.8,98,0.08,,OVC026,0.53,VWS V14.00,2013-01-29 05:21:00,
2013-01-28 21:22:00,41.9,41.4,30.15,West,270,0.9,2.0,98,0.08,,OVC026,0.53,VWS V14.00,2013-01-29 05:22:00,
2013-01-28 21:23:00,41.9,41.4,30.15,West,270,2.5,2.5,98,0.08,,OVC026,0.53,VWS V14.00,2013-01-29 05:23:00,
2013-01-28 21:25:00,41.9,41.4,30.15,SW,225,0.9,4.0,98,0.08,,OVC026,0.53,VWS V14.00,2013-01-29 05:25:00,
2013-01-28 21:26:00,42.1,41.6,30.15,SE,135,1.3,4.0,98,0.08,,OVC026,0.53,VWS V14.00,2013-01-29 05:26:00,
2013-01-28 21:27:00,42.1,41.6,30.15,SE,135,1.3,4.0,98,0.08,,OVC026,0.53,VWS V14.00,2013-01-29 05:27:00,
2013-01-28 21:28:00,42.1,41.6,30.15,SSW,202,1.1,3.1,98,0.03,,OVC026,0.53,VWS V14.00,2013-01-29 05:28:00,
2013-01-28 21:30:00,42.1,41.6,30.15,West,270,2.9,3.1,98,0.03,,OVC026,0.53,VWS V14.00,2013-01-29 05:30:00,
2013-01-28 21:31:00,42.1,41.6,30.15,WNW,292,3.8,3.8,98,0.03,,OVC024,0.53,VWS V14.00,2013-01-29 05:31:00,
2013-01-28 21:32:00,42.1,41.6,30.15,WNW,292,3.8,3.8,98,0.03,,OVC024,0.53,VWS V14.00,2013-01-29 05:32:00,
2013-01-28 21:33:00,42.1,41.6,30.15,WSW,248,1.6,3.8,98,0.03,,OVC024,0.53,VWS V14.00,2013-01-29 05:33:00,
2013-01-28 21:35:00,42.1,41.6,30.15,NNW,338,1.3,3.8,98,0.03,,OVC024,0.53,VWS V14.00,2013-01-29 05:35:00,
2013-01-28 21:36:00,42.1,41.6,30.15,SE,135,1.1,3.8,98,0.03,,OVC024,0.53,VWS V14.00,2013-01-29 05:36:00,
2013-01-28 21:37:00,42.1,41.6,30.15,East,90,3.4,3.8,98,0.03,,OVC024,0.53,VWS V14.00,2013-01-29 05:37:00,
2013-01-28 21:38:00,42.1,41.6,30.15,WSW,248,3.6,3.8,98,0.03,,OVC024,0.53,VWS V14.00,2013-01-29 05:38:00,
2013-01-28 21:40:00,42.1,41.6,30.15,NE,45,2.2,3.8,98,0.03,,OVC024,0.53,VWS V14.00,2013-01-29 05:40:00,
2013-01-28 21:41:00,42.1,41.6,30.15,South,180,0.0,3.8,98,0.03,,OVC024,0.53,VWS V14.00,2013-01-29 05:41:00,
2013-01-28 21:42:00,42.1,41.6,30.15,South,180,0.0,3.8,98,0.03,,OVC024,0.53,VWS V14.00,2013-01-29 05:42:00,
2013-01-28 21:43:00,42.1,41.6,30.15,South,180,0.0,3.8,98,0.03,,OVC024,0.53,VWS V14.00,2013-01-29 05:43:00,
2013-01-28 21:45:00,42.1,41.6,30.15,South,180,1.3,3.8,98,0.03,,OVC024,0.53,VWS V14.00,2013-01-29 05:45:00,
2013-01-28 21:46:00,42.1,41.6,30.15,WNW,292,2.5,3.8,98,0.03,,OVC024,0.53,VWS V14.00,2013-01-29 05:46:00,
2013-01-28 21:47:00,42.1,41.6,30.15,WNW,292,2.5,3.8,98,0.03,,OVC024,0.53,VWS V14.00,2013-01-29 05:47:00,
2013-01-28 21:48:00,42.1,41.6,30.15,ENE,68,0.0,3.6,98,0.03,,OVC024,0.53,VWS V14.00,2013-01-29 05:48:00,
2013-01-28 21:50:00,42.1,41.6,30.15,SSW,202,0.0,3.6,98,0.03,,OVC024,0.53,VWS V14.00,2013-01-29 05:50:00,
2013-01-28 21:51:00,42.1,41.6,30.15,WSW,248,0.0,3.6,98,0.03,,OVC024,0.53,VWS V14.00,2013-01-29 05:51:00,
2013-01-28 21:52:00,42.1,41.6,30.15,WSW,248,0.0,3.6,98,0.03,,OVC024,0.53,VWS V14.00,2013-01-29 05:52:00,
2013-01-28 21:53:00,42.1,41.6,30.15,WNW,292,0.0,3.6,98,0.03,,OVC024,0.53,VWS V14.00,2013-01-29 05:53:00,
2013-01-28 21:56:00,42.1,41.6,30.15,West,270,0.0,2.5,98,0.08,,OVC024,0.58,VWS V14.00,2013-01-29 05:56:00,
2013-01-28 21:57:00,42.1,41.6,30.15,SSW,202,0.0,2.5,98,0.05,,OVC024,0.58,VWS V14.00,2013-01-29 05:57:00,
2013-01-28 21:58:00,42.1,41.6,30.15,East,90,0.0,2.5,98,0.05,,OVC024,0.58,VWS V14.00,2013-01-29 05:58:00,
2013-01-28 22:01:00,41.9,41.4,30.15,WSW,248,2.7,2.7,98,0.05,,OVC024,0.58,VWS V14.00,2013-01-29 06:01:00,
2013-01-28 22:02:00,42.1,41.6,30.15,WSW,248,2.7,2.7,98,0.05,,OVC024,0.58,VWS V14.00,2013-01-29 06:02:00,
2013-01-28 22:03:00,42.1,41.6,30.15,NE,45,1.6,2.7,98,0.05,,OVC024,0.58,VWS V14.00,2013-01-29 06:03:00,
2013-01-28 22:06:00,42.1,41.6,30.15,West,270,0.0,2.7,98,0.05,,OVC024,0.58,VWS V14.00,2013-01-29 06:06:00,
2013-01-28 22:07:00,42.1,41.6,30.15,East,90,0.0,2.7,98,0.05,,OVC024,0.58,VWS V14.00,2013-01-29 06:07:00,
2013-01-28 22:08:00,42.1,41.6,30.15,ESE,112,2.5,2.7,98,0.05,,OVC024,0.58,VWS V14.00,2013-01-29 06:08:00,
2013-01-28 22:11:00,42.1,41.6,30.15,SSW,202,1.6,2.7,98,0.05,,OVC024,0.58,VWS V14.00,2013-01-29 06:11:00,
2013-01-28 22:12:00,42.1,41.6,30.15,WNW,292,0.0,2.7,98,0.05,,OVC024,0.58,VWS V14.00,2013-01-29 06:12:00,
2013-01-28 22:13:00,42.1,41.6,30.15,WNW,292,0.0,2.9,98,0.05,,OVC024,0.58,VWS V14.00,2013-01-29 06:13:00,
2013-01-28 22:16:00,42.3,41.7,30.15,SSW,202,2.5,2.9,98,0.05,,OVC024,0.58,VWS V14.00,2013-01-29 06:16:00,
2013-01-28 22:17:00,42.3,41.7,30.15,WSW,248,2.0,2.9,98,0.05,,OVC024,0.58,VWS V14.00,2013-01-29 06:17:00,
2013-01-28 22:18:00,42.1,41.6,30.15,West,270,2.2,2.9,98,0.05,,OVC024,0.58,VWS V14.00,2013-01-29 06:18:00,
2013-01-28 22:21:00,42.1,41.6,30.15,SE,135,0.9,2.9,98,0.05,,OVC024,0.58,VWS V14.00,2013-01-29 06:21:00,
2013-01-28 22:22:00,42.1,41.6,30.15,SSE,158,0.0,2.9,98,0.05,,OVC024,0.58,VWS V14.00,2013-01-29 06:22:00,
2013-01-28 22:23:00,42.1,41.6,30.15,SSE,158,2.0,2.9,98,0.05,,OVC024,0.58,VWS V14.00,2013-01-29 06:23:00,
2013-01-28 22:26:00,42.3,41.7,30.15,North,0,0.0,2.9,98,0.05,,OVC024,0.58,VWS V14.00,2013-01-29 06:26:00,
2013-01-28 22:27:00,42.1,41.6,30.15,WSW,248,0.9,2.9,98,0.05,,OVC024,0.58,VWS V14.00,2013-01-29 06:27:00,
2013-01-28 22:29:00,42.1,41.6,30.15,WNW,292,2.9,2.9,98,0.05,,OVC024,0.58,VWS V14.00,2013-01-29 06:29:00,
2013-01-28 22:31:00,42.3,41.7,30.15,SSE,158,1.3,2.9,98,0.05,,OVC024,0.58,VWS V14.00,2013-01-29 06:31:00,
2013-01-28 22:32:00,42.3,41.7,30.15,West,270,0.0,2.9,98,0.05,,OVC024,0.58,VWS V14.00,2013-01-29 06:32:00,
2013-01-28 22:34:00,42.3,41.7,30.15,NNW,338,1.3,3.6,98,0.05,,OVC022,0.58,VWS V14.00,2013-01-29 06:34:00,
2013-01-28 22:36:00,42.3,41.7,30.15,WSW,248,2.9,3.6,98,0.09,,OVC022,0.62,VWS V14.00,2013-01-29 06:36:00,
2013-01-28 22:37:00,42.3,41.7,30.15,West,270,3.6,3.6,98,0.09,,OVC022,0.62,VWS V14.00,2013-01-29 06:37:00,
2013-01-28 22:39:00,42.3,41.7,30.15,NNW,338,0.0,3.6,98,0.09,,OVC022,0.62,VWS V14.00,2013-01-29 06:39:00,
2013-01-28 22:41:00,42.3,41.7,30.15,West,270,0.9,3.6,98,0.09,,OVC022,0.62,VWS V14.00,2013-01-29 06:41:00,
2013-01-28 22:42:00,42.3,41.7,30.15,West,270,0.9,3.6,98,0.09,,OVC022,0.62,VWS V14.00,2013-01-29 06:42:00,
2013-01-28 22:44:00,42.3,41.7,30.15,WSW,248,0.0,3.6,98,0.09,,OVC022,0.62,VWS V14.00,2013-01-29 06:44:00,
2013-01-28 22:46:00,42.3,42.0,30.15,SSW,202,0.0,3.6,99,0.09,,OVC022,0.62,VWS V14.00,2013-01-29 06:46:00,
2013-01-28 22:47:00,42.3,42.0,30.15,WNW,292,1.1,3.6,99,0.09,,OVC024,0.62,VWS V14.00,2013-01-29 06:47:00,
2013-01-28 22:49:00,42.4,42.2,30.15,WNW,292,0.0,3.6,99,0.09,,OVC024,0.62,VWS V14.00,2013-01-29 06:49:00,
2013-01-28 22:51:00,42.3,42.0,30.15,East,90,0.0,3.6,99,0.09,,OVC024,0.62,VWS V14.00,2013-01-29 06:51:00,
2013-01-28 22:52:00,42.3,42.0,30.15,East,90,0.0,3.6,99,0.09,,OVC024,0.62,VWS V14.00,2013-01-29 06:52:00,
2013-01-28 22:53:00,42.3,42.0,30.15,East,90,0.0,3.6,99,0.09,,OVC024,0.62,VWS V14.00,2013-01-29 06:53:00,
2013-01-28 22:54:00,42.3,42.0,30.18,WSW,248,1.1,1.6,99,0.09,,OVC024,0.62,VWS V14.00,2013-01-29 06:54:00,
2013-01-28 22:56:00,42.3,42.0,30.18,WSW,248,0.0,1.6,99,0.04,,OVC024,0.62,VWS V14.00,2013-01-29 06:56:00,
2013-01-28 22:57:00,42.3,42.0,30.18,West,270,0.0,1.6,99,0.04,,OVC024,0.62,VWS V14.00,2013-01-29 06:57:00,
2013-01-28 22:58:00,42.3,42.0,30.18,West,270,0.0,1.6,99,0.04,,OVC024,0.62,VWS V14.00,2013-01-29 06:58:00,
2013-01-28 22:59:00,42.3,42.0,30.18,West,270,0.0,1.6,99,0.04,,OVC024,0.62,VWS V14.00,2013-01-29 06:59:00,
2013-01-28 23:01:00,42.3,42.0,30.18,WSW,248,0.0,2.0,99,0.04,,OVC024,0.62,VWS V14.00,2013-01-29 07:01:00,
2013-01-28 23:02:00,42.3,42.0,30.18,WSW,248,2.0,2.0,99,0.04,,OVC024,0.62,VWS V14.00,2013-01-29 07:02:00,
2013-01-28 23:03:00,42.3,42.0,30.18,SSE,158,0.9,2.0,99,0.04,,OVC024,0.62,VWS V14.00,2013-01-29 07:03:00,
2013-01-28 23:04:00,42.3,42.0,30.18,West,270,0.0,2.0,99,0.04,,OVC024,0.62,VWS V14.00,2013-01-29 07:04:00,
2013-01-28 23:06:00,42.3,42.0,30.18,SE,135,2.0,2.0,99,0.04,,OVC024,0.62,VWS V14.00,2013-01-29 07:06:00,
2013-01-28 23:07:00,42.3,42.0,30.18,WSW,248,0.0,2.0,99,0.04,,OVC024,0.62,VWS V14.00,2013-01-29 07:07:00,
2013-01-28 23:08:00,42.3,42.0,30.18,WSW,248,0.0,2.0,99,0.04,,OVC024,0.62,VWS V14.00,2013-01-29 07:08:00,
2013-01-28 23:09:00,42.3,42.0,30.18,WNW,292,3.1,3.1,99,0.04,,OVC024,0.62,VWS V14.00,2013-01-29 07:09:00,
2013-01-28 23:11:00,42.3,42.0,30.18,WNW,292,2.0,3.1,99,0.04,,OVC024,0.62,VWS V14.00,2013-01-29 07:11:00,
2013-01-28 23:12:00,42.3,42.0,30.18,WNW,292,1.3,3.1,99,0.04,,OVC024,0.62,VWS V14.00,2013-01-29 07:12:00,
2013-01-28 23:13:00,42.3,42.0,30.18,SSW,202,4.7,4.7,99,0.04,,OVC024,0.62,VWS V14.00,2013-01-29 07:13:00,
2013-01-28 23:14:00,42.3,42.0,30.18,SSW,202,4.7,4.7,99,0.04,,OVC024,0.62,VWS V14.00,2013-01-29 07:14:00,
2013-01-28 23:16:00,42.4,42.2,30.18,SSE,158,1.1,4.7,99,0.04,,OVC024,0.62,VWS V14.00,2013-01-29 07:16:00,
2013-01-28 23:17:00,42.4,42.2,30.18,WSW,248,3.4,4.7,99,0.04,,OVC024,0.62,VWS V14.00,2013-01-29 07:17:00,
2013-01-28 23:18:00,42.4,42.2,30.18,WNW,292,3.8,4.7,99,0.04,,OVC024,0.62,VWS V14.00,2013-01-29 07:18:00,
2013-01-28 23:19:00,42.4,42.2,30.18,WNW,292,3.8,4.7,99,0.04,,OVC024,0.62,VWS V14.00,2013-01-29 07:19:00,
2013-01-28 23:21:00,42.4,42.2,30.18,SSW,202,2.5,4.7,99,0.04,,OVC024,0.62,VWS V14.00,2013-01-29 07:21:00,
2013-01-28 23:22:00,42.4,42.2,30.18,WSW,248,1.6,4.7,99,0.04,,OVC024,0.62,VWS V14.00,2013-01-29 07:22:00,
2013-01-28 23:23:00,42.4,42.2,30.18,West,270,2.9,4.7,99,0.04,,OVC024,0.62,VWS V14.00,2013-01-29 07:23:00,
2013-01-28 23:24:00,42.4,42.2,30.18,WNW,292,0.0,4.7,99,0.04,,OVC024,0.62,VWS V14.00,2013-01-29 07:24:00,
2013-01-28 23:26:00,42.4,42.2,30.18,SW,225,2.2,4.7,99,0.04,,OVC024,0.62,VWS V14.00,2013-01-29 07:26:00,
2013-01-28 23:27:00,42.4,42.2,30.18,SW,225,2.2,4.7,99,0.04,,OVC024,0.62,VWS V14.00,2013-01-29 07:27:00,
2013-01-28 23:28:00,42.4,42.2,30.18,West,270,3.1,4.7,99,0.04,,OVC024,0.62,VWS V14.00,2013-01-29 07:28:00,
2013-01-28 23:29:00,42.4,42.2,30.18,WSW,248,2.5,4.7,99,0.04,,OVC024,0.62,VWS V14.00,2013-01-29 07:29:00,
2013-01-28 23:31:00,42.4,42.2,30.18,SSW,202,1.6,4.7,99,0.04,,OVC019,0.62,VWS V14.00,2013-01-29 07:31:00,
2013-01-28 23:32:00,42.4,42.2,30.18,WSW,248,0.9,3.8,99,0.04,,OVC019,0.62,VWS V14.00,2013-01-29 07:32:00,
2013-01-28 23:33:00,42.4,42.2,30.18,WSW,248,0.0,3.8,99,0.04,,OVC019,0.62,VWS V14.00,2013-01-29 07:33:00,
2013-01-28 23:34:00,42.4,42.2,30.18,ESE,112,2.7,3.8,99,0.04,,OVC019,0.62,VWS V14.00,2013-01-29 07:34:00,
2013-01-28 23:36:00,42.4,42.2,30.18,North,0,2.0,3.8,99,0.00,,OVC019,0.62,VWS V14.00,2013-01-29 07:36:00,
2013-01-28 23:37:00,42.4,42.2,30.18,WNW,292,2.5,3.1,99,0.00,,OVC019,0.62,VWS V14.00,2013-01-29 07:37:00,
2013-01-28 23:38:00,42.4,42.2,30.18,ENE,68,2.9,3.1,99,0.00,,OVC019,0.62,VWS V14.00,2013-01-29 07:38:00,
2013-01-28 23:39:00,42.4,42.2,30.18,WSW,248,2.0,3.1,99,0.00,,OVC019,0.62,VWS V14.00,2013-01-29 07:39:00,
2013-01-28 23:41:00,42.4,42.2,30.18,ENE,68,1.6,3.1,99,0.00,,OVC019,0.62,VWS V14.00,2013-01-29 07:41:00,
2013-01-28 23:42:00,42.4,42.2,30.18,ENE,68,1.6,3.1,99,0.00,,OVC019,0.62,VWS V14.00,2013-01-29 07:42:00,
2013-01-28 23:43:00,42.4,42.2,30.18,WSW,248,3.1,3.1,99,0.00,,OVC019,0.62,VWS V14.00,2013-01-29 07:43:00,
2013-01-28 23:44:00,42.4,42.2,30.18,WSW,248,2.0,3.1,99,0.00,,OVC019,0.62,VWS V14.00,2013-01-29 07:44:00,
2013-01-28 23:46:00,42.4,42.2,30.18,NNE,22,2.5,3.1,99,0.00,,OVC019,0.62,VWS V14.00,2013-01-29 07:46:00,
2013-01-28 23:47:00,42.4,42.2,30.18,SSE,158,1.6,3.1,99,0.00,,OVC019,0.62,VWS V14.00,2013-01-29 07:47:00,
2013-01-28 23:48:00,42.4,42.2,30.18,WNW,292,1.3,3.1,99,0.00,,OVC020,0.62,VWS V14.00,2013-01-29 07:48:00,
2013-01-28 23:49:00,42.4,42.2,30.18,NE,45,0.9,3.1,99,0.00,,OVC020,0.62,VWS V14.00,2013-01-29 07:49:00,
2013-01-28 23:51:00,42.4,42.2,30.18,WSW,248,0.0,3.1,99,0.00,,OVC020,0.62,VWS V14.00,2013-01-29 07:51:00,
2013-01-28 23:52:00,42.4,42.2,30.18,SSW,202,0.0,3.1,99,0.00,,OVC020,0.62,VWS V14.00,2013-01-29 07:52:00,
2013-01-28 23:53:00,42.4,42.2,30.18,WNW,292,2.2,3.1,99,0.00,,OVC020,0.62,VWS V14.00,2013-01-29 07:53:00,
2013-01-28 23:54:00,42.4,42.2,30.18,WSW,248,1.1,3.1,99,0.00,,OVC020,0.62,VWS V14.00,2013-01-29 07:54:00,
2013-01-28 23:57:00,42.4,42.2,30.18,WSW,248,3.1,3.6,99,0.00,,OVC020,0.62,VWS V14.00,2013-01-29 07:57:00,
2013-01-28 23:58:00,42.4,42.2,30.18,WNW,292,2.0,3.6,99,0.00,,OVC020,0.62,VWS V14.00,2013-01-29 07:58:00,
2013-01-28 23:59:00,42.4,42.2,30.18,WNW,292,3.4,3.6,99,0.00,,OVC020,0.62,VWS V14.00,2013-01-29 07:59:00,